<?xml version='1.0' encoding='UTF-8'?><gpx version="1.1" creator="JPX - https://github.com/jenetics/jpx" xmlns="http://www.topografix.com/GPX/1/1"><trk><trkseg><trkpt lat="45.57264" lon="8.6393506"><ele>195.0</ele><time>2026-04-25T09:05:14.39Z</time></trkpt><trkpt lat="45.572569" lon="8.6394252"><ele>195.0</ele><time>2026-04-25T09:05:20.44Z</time></trkpt><trkpt lat="45.5725067" lon="8.6394634"><ele>195.0</ele><time>2026-04-25T09:05:22.388Z</time></trkpt><trkpt lat="45.5724471" lon="8.6394942"><ele>195.0</ele><time>2026-04-25T09:05:24.386Z</time></trkpt><trkpt lat="45.5723794" lon="8.6395518"><ele>195.0</ele><time>2026-04-25T09:05:27.405Z</time></trkpt><trkpt lat="45.5723962" lon="8.6396465"><ele>195.0</ele><time>2026-04-25T09:05:31.443Z</time></trkpt><trkpt lat="45.5723661" lon="8.6397557"><ele>195.0</ele><time>2026-04-25T09:05:36.39Z</time></trkpt><trkpt lat="45.5723804" lon="8.6398717"><ele>195.0</ele><time>2026-04-25T09:05:39.418Z</time></trkpt><trkpt lat="45.5724067" lon="8.6399589"><ele>195.0</ele><time>2026-04-25T09:05:41.437Z</time></trkpt><trkpt lat="45.5724357" lon="8.6400751"><ele>195.0</ele><time>2026-04-25T09:05:43.385Z</time></trkpt><trkpt lat="45.5724601" lon="8.6401886"><ele>195.0</ele><time>2026-04-25T09:05:45.389Z</time></trkpt><trkpt lat="45.5724783" lon="8.640296"><ele>195.0</ele><time>2026-04-25T09:05:47.393Z</time></trkpt><trkpt lat="45.5725088" lon="8.6404052"><ele>195.0</ele><time>2026-04-25T09:05:49.412Z</time></trkpt><trkpt lat="45.5725365" lon="8.6404946"><ele>195.28571428571428</ele><time>2026-04-25T09:05:51.432Z</time></trkpt><trkpt lat="45.5725617" lon="8.640587"><ele>195.57142857142856</ele><time>2026-04-25T09:05:54.39Z</time></trkpt><trkpt lat="45.5726323" lon="8.6405818"><ele>195.85714285714286</ele><time>2026-04-25T09:05:57.389Z</time></trkpt><trkpt lat="45.5726868" lon="8.6405256"><ele>196.14285714285714</ele><time>2026-04-25T09:06:02.436Z</time></trkpt><trkpt lat="45.5727409" lon="8.640464"><ele>196.42857142857144</ele><time>2026-04-25T09:06:11.42Z</time></trkpt><trkpt lat="45.572785" lon="8.6405417"><ele>196.71428571428572</ele><time>2026-04-25T09:06:18.387Z</time></trkpt><trkpt lat="45.5728117" lon="8.640625"><ele>197.0</ele><time>2026-04-25T09:06:21.388Z</time></trkpt><trkpt lat="45.572865" lon="8.6407033"><ele>197.0</ele><time>2026-04-25T09:06:24.388Z</time></trkpt><trkpt lat="45.5728917" lon="8.6407867"><ele>197.0</ele><time>2026-04-25T09:06:26.389Z</time></trkpt><trkpt lat="45.5729233" lon="8.6409117"><ele>197.0</ele><time>2026-04-25T09:06:29.388Z</time></trkpt><trkpt lat="45.5729433" lon="8.641"><ele>197.0</ele><time>2026-04-25T09:06:31.387Z</time></trkpt><trkpt lat="45.5729683" lon="8.6410883"><ele>197.0</ele><time>2026-04-25T09:06:33.39Z</time></trkpt><trkpt lat="45.5729933" lon="8.6411783"><ele>197.0</ele><time>2026-04-25T09:06:35.387Z</time></trkpt><trkpt lat="45.5730183" lon="8.6412667"><ele>197.0</ele><time>2026-04-25T09:06:37.39Z</time></trkpt><trkpt lat="45.573045" lon="8.64136"><ele>196.85714285714286</ele><time>2026-04-25T09:06:39.387Z</time></trkpt><trkpt lat="45.5730717" lon="8.6414517"><ele>196.71428571428572</ele><time>2026-04-25T09:06:41.388Z</time></trkpt><trkpt lat="45.573095" lon="8.6415483"><ele>196.57142857142856</ele><time>2026-04-25T09:06:43.389Z</time></trkpt><trkpt lat="45.5731167" lon="8.6416383"><ele>196.42857142857144</ele><time>2026-04-25T09:06:45.383Z</time></trkpt><trkpt lat="45.5731433" lon="8.641735"><ele>196.28571428571428</ele><time>2026-04-25T09:06:47.388Z</time></trkpt><trkpt lat="45.5731717" lon="8.6418317"><ele>196.14285714285714</ele><time>2026-04-25T09:06:49.388Z</time></trkpt><trkpt lat="45.5731967" lon="8.641935"><ele>196.0</ele><time>2026-04-25T09:06:51.389Z</time></trkpt><trkpt lat="45.5732217" lon="8.6420433"><ele>195.85714285714286</ele><time>2026-04-25T09:06:53.387Z</time></trkpt><trkpt lat="45.5732483" lon="8.6421433"><ele>195.71428571428572</ele><time>2026-04-25T09:06:55.387Z</time></trkpt><trkpt lat="45.5732717" lon="8.6422383"><ele>195.57142857142856</ele><time>2026-04-25T09:06:57.383Z</time></trkpt><trkpt lat="45.573295" lon="8.6423267"><ele>195.42857142857144</ele><time>2026-04-25T09:06:59.386Z</time></trkpt><trkpt lat="45.5733117" lon="8.6424167"><ele>195.28571428571428</ele><time>2026-04-25T09:07:01.389Z</time></trkpt><trkpt lat="45.573325" lon="8.6425083"><ele>195.14285714285714</ele><time>2026-04-25T09:07:03.389Z</time></trkpt><trkpt lat="45.57334" lon="8.6426"><ele>195.0</ele><time>2026-04-25T09:07:05.389Z</time></trkpt><trkpt lat="45.5733567" lon="8.6426967"><ele>195.0</ele><time>2026-04-25T09:07:07.389Z</time></trkpt><trkpt lat="45.5733717" lon="8.64279"><ele>195.0</ele><time>2026-04-25T09:07:09.387Z</time></trkpt><trkpt lat="45.5733917" lon="8.6428833"><ele>195.0</ele><time>2026-04-25T09:07:11.387Z</time></trkpt><trkpt lat="45.5734083" lon="8.6429767"><ele>195.0</ele><time>2026-04-25T09:07:13.388Z</time></trkpt><trkpt lat="45.57342" lon="8.6430717"><ele>195.0</ele><time>2026-04-25T09:07:15.389Z</time></trkpt><trkpt lat="45.5734283" lon="8.6431617"><ele>195.0</ele><time>2026-04-25T09:07:17.388Z</time></trkpt><trkpt lat="45.5734483" lon="8.6432533"><ele>195.0</ele><time>2026-04-25T09:07:19.387Z</time></trkpt><trkpt lat="45.5734717" lon="8.6433533"><ele>195.14285714285714</ele><time>2026-04-25T09:07:21.389Z</time></trkpt><trkpt lat="45.5734883" lon="8.6434467"><ele>195.28571428571428</ele><time>2026-04-25T09:07:23.389Z</time></trkpt><trkpt lat="45.573505" lon="8.643545"><ele>195.42857142857144</ele><time>2026-04-25T09:07:25.388Z</time></trkpt><trkpt lat="45.5735183" lon="8.6436383"><ele>195.57142857142856</ele><time>2026-04-25T09:07:27.388Z</time></trkpt><trkpt lat="45.57353" lon="8.643735"><ele>195.71428571428572</ele><time>2026-04-25T09:07:29.388Z</time></trkpt><trkpt lat="45.573545" lon="8.643825"><ele>195.85714285714286</ele><time>2026-04-25T09:07:31.386Z</time></trkpt><trkpt lat="45.5735567" lon="8.6439167"><ele>196.0</ele><time>2026-04-25T09:07:33.381Z</time></trkpt><trkpt lat="45.5735683" lon="8.6440067"><ele>196.0</ele><time>2026-04-25T09:07:35.388Z</time></trkpt><trkpt lat="45.5735817" lon="8.6441083"><ele>196.0</ele><time>2026-04-25T09:07:37.39Z</time></trkpt><trkpt lat="45.5735967" lon="8.6442083"><ele>196.0</ele><time>2026-04-25T09:07:39.388Z</time></trkpt><trkpt lat="45.57361" lon="8.6443083"><ele>196.0</ele><time>2026-04-25T09:07:41.389Z</time></trkpt><trkpt lat="45.57363" lon="8.64441"><ele>196.0</ele><time>2026-04-25T09:07:43.388Z</time></trkpt><trkpt lat="45.5736433" lon="8.6445067"><ele>196.0</ele><time>2026-04-25T09:07:45.387Z</time></trkpt><trkpt lat="45.573655" lon="8.64461"><ele>196.0</ele><time>2026-04-25T09:07:47.388Z</time></trkpt><trkpt lat="45.5736667" lon="8.64471"><ele>196.16666666666666</ele><time>2026-04-25T09:07:49.389Z</time></trkpt><trkpt lat="45.5736767" lon="8.6448067"><ele>196.33333333333331</ele><time>2026-04-25T09:07:51.389Z</time></trkpt><trkpt lat="45.57369" lon="8.6449083"><ele>196.5</ele><time>2026-04-25T09:07:53.388Z</time></trkpt><trkpt lat="45.5737" lon="8.64501"><ele>196.66666666666669</ele><time>2026-04-25T09:07:55.389Z</time></trkpt><trkpt lat="45.5737117" lon="8.64511"><ele>196.83333333333334</ele><time>2026-04-25T09:07:57.388Z</time></trkpt><trkpt lat="45.5737267" lon="8.64524"><ele>197.0</ele><time>2026-04-25T09:08:00.388Z</time></trkpt><trkpt lat="45.57374" lon="8.6453667"><ele>196.50000000000003</ele><time>2026-04-25T09:08:03.388Z</time></trkpt><trkpt lat="45.573755" lon="8.6454967"><ele>196.0</ele><time>2026-04-25T09:08:06.388Z</time></trkpt><trkpt lat="45.573765" lon="8.64559"><ele>195.5</ele><time>2026-04-25T09:08:08.389Z</time></trkpt><trkpt lat="45.57378" lon="8.6457183"><ele>195.0</ele><time>2026-04-25T09:08:11.387Z</time></trkpt><trkpt lat="45.5737917" lon="8.64583"><ele>194.50000000000003</ele><time>2026-04-25T09:08:14.381Z</time></trkpt><trkpt lat="45.573805" lon="8.6459417"><ele>194.0</ele><time>2026-04-25T09:08:17.389Z</time></trkpt><trkpt lat="45.573815" lon="8.6460367"><ele>194.00000000000003</ele><time>2026-04-25T09:08:19.385Z</time></trkpt><trkpt lat="45.5738283" lon="8.6461567"><ele>194.0</ele><time>2026-04-25T09:08:22.388Z</time></trkpt><trkpt lat="45.57384" lon="8.6462567"><ele>194.0</ele><time>2026-04-25T09:08:24.39Z</time></trkpt><trkpt lat="45.5738433" lon="8.646385"><ele>194.0</ele><time>2026-04-25T09:08:27.388Z</time></trkpt><trkpt lat="45.573855" lon="8.6464917"><ele>194.00000000000003</ele><time>2026-04-25T09:08:29.39Z</time></trkpt><trkpt lat="45.5738633" lon="8.6465917"><ele>194.0</ele><time>2026-04-25T09:08:31.388Z</time></trkpt><trkpt lat="45.5738733" lon="8.6466983"><ele>194.00000000000003</ele><time>2026-04-25T09:08:33.388Z</time></trkpt><trkpt lat="45.573885" lon="8.64684"><ele>194.0</ele><time>2026-04-25T09:08:36.39Z</time></trkpt><trkpt lat="45.5738967" lon="8.6469717"><ele>194.0</ele><time>2026-04-25T09:08:39.386Z</time></trkpt><trkpt lat="45.573905" lon="8.6470733"><ele>194.0</ele><time>2026-04-25T09:08:41.388Z</time></trkpt><trkpt lat="45.5739167" lon="8.6472017"><ele>194.00000000000003</ele><time>2026-04-25T09:08:44.389Z</time></trkpt><trkpt lat="45.5739267" lon="8.647325"><ele>194.0</ele><time>2026-04-25T09:08:47.386Z</time></trkpt><trkpt lat="45.5739367" lon="8.6474333"><ele>194.0</ele><time>2026-04-25T09:08:50.389Z</time></trkpt><trkpt lat="45.573945" lon="8.647525"><ele>194.0</ele><time>2026-04-25T09:08:53.386Z</time></trkpt><trkpt lat="45.5739533" lon="8.6476383"><ele>194.0</ele><time>2026-04-25T09:08:57.385Z</time></trkpt><trkpt lat="45.5739633" lon="8.6477533"><ele>194.0</ele><time>2026-04-25T09:09:00.387Z</time></trkpt><trkpt lat="45.5739717" lon="8.6478433"><ele>194.0</ele><time>2026-04-25T09:09:02.387Z</time></trkpt><trkpt lat="45.57398" lon="8.64794"><ele>194.0</ele><time>2026-04-25T09:09:04.388Z</time></trkpt><trkpt lat="45.5739883" lon="8.648035"><ele>194.0</ele><time>2026-04-25T09:09:06.388Z</time></trkpt><trkpt lat="45.574" lon="8.648165"><ele>194.0</ele><time>2026-04-25T09:09:09.389Z</time></trkpt><trkpt lat="45.5740067" lon="8.6482567"><ele>194.0</ele><time>2026-04-25T09:09:11.387Z</time></trkpt><trkpt lat="45.574015" lon="8.6483483"><ele>194.0</ele><time>2026-04-25T09:09:13.387Z</time></trkpt><trkpt lat="45.5740233" lon="8.6484383"><ele>194.0</ele><time>2026-04-25T09:09:15.387Z</time></trkpt><trkpt lat="45.5740317" lon="8.648535"><ele>194.0</ele><time>2026-04-25T09:09:17.387Z</time></trkpt><trkpt lat="45.5740417" lon="8.64866"><ele>194.0</ele><time>2026-04-25T09:09:20.39Z</time></trkpt><trkpt lat="45.57405" lon="8.6487733"><ele>194.0</ele><time>2026-04-25T09:09:23.387Z</time></trkpt><trkpt lat="45.5740617" lon="8.6489167"><ele>194.00000000000003</ele><time>2026-04-25T09:09:26.388Z</time></trkpt><trkpt lat="45.574055" lon="8.64903"><ele>194.0</ele><time>2026-04-25T09:09:28.388Z</time></trkpt><trkpt lat="45.5740667" lon="8.649175"><ele>194.0</ele><time>2026-04-25T09:09:31.389Z</time></trkpt><trkpt lat="45.57407" lon="8.64928"><ele>194.0</ele><time>2026-04-25T09:09:33.388Z</time></trkpt><trkpt lat="45.5740817" lon="8.6494"><ele>194.00000000000003</ele><time>2026-04-25T09:09:36.389Z</time></trkpt><trkpt lat="45.5740883" lon="8.6494933"><ele>194.0</ele><time>2026-04-25T09:09:40.387Z</time></trkpt><trkpt lat="45.5741233" lon="8.64957"><ele>194.00000000000003</ele><time>2026-04-25T09:09:46.387Z</time></trkpt><trkpt lat="45.5741333" lon="8.6496933"><ele>194.0</ele><time>2026-04-25T09:09:49.387Z</time></trkpt><trkpt lat="45.5741417" lon="8.6498"><ele>194.0</ele><time>2026-04-25T09:09:52.388Z</time></trkpt><trkpt lat="45.5741483" lon="8.64989"><ele>194.0</ele><time>2026-04-25T09:09:55.386Z</time></trkpt><trkpt lat="45.5741617" lon="8.650005"><ele>194.00000000000003</ele><time>2026-04-25T09:09:59.389Z</time></trkpt><trkpt lat="45.5742" lon="8.6501133"><ele>194.0</ele><time>2026-04-25T09:10:02.387Z</time></trkpt><trkpt lat="45.57425" lon="8.6501683"><ele>194.00000000000003</ele><time>2026-04-25T09:10:04.39Z</time></trkpt><trkpt lat="45.5743333" lon="8.6502183"><ele>194.0</ele><time>2026-04-25T09:10:07.383Z</time></trkpt><trkpt lat="45.5743983" lon="8.6502583"><ele>194.0</ele><time>2026-04-25T09:10:09.387Z</time></trkpt><trkpt lat="45.5744583" lon="8.650305"><ele>194.0</ele><time>2026-04-25T09:10:11.388Z</time></trkpt><trkpt lat="45.5745183" lon="8.6503433"><ele>194.00000000000003</ele><time>2026-04-25T09:10:13.386Z</time></trkpt><trkpt lat="45.5745967" lon="8.650395"><ele>194.0</ele><time>2026-04-25T09:10:16.387Z</time></trkpt><trkpt lat="45.5746583" lon="8.6504433"><ele>194.14285714285714</ele><time>2026-04-25T09:10:19.388Z</time></trkpt><trkpt lat="45.5747317" lon="8.6505183"><ele>194.2857142857143</ele><time>2026-04-25T09:10:22.388Z</time></trkpt><trkpt lat="45.5748033" lon="8.6505417"><ele>194.42857142857144</ele><time>2026-04-25T09:10:25.386Z</time></trkpt><trkpt lat="45.5748683" lon="8.6505383"><ele>194.57142857142856</ele><time>2026-04-25T09:10:29.381Z</time></trkpt><trkpt lat="45.574945" lon="8.6505517"><ele>194.71428571428572</ele><time>2026-04-25T09:10:32.389Z</time></trkpt><trkpt lat="45.5750083" lon="8.6505317"><ele>194.85714285714286</ele><time>2026-04-25T09:10:34.384Z</time></trkpt><trkpt lat="45.5750717" lon="8.6505267"><ele>195.0</ele><time>2026-04-25T09:10:36.39Z</time></trkpt><trkpt lat="45.5751633" lon="8.65053"><ele>195.0</ele><time>2026-04-25T09:10:39.386Z</time></trkpt><trkpt lat="45.5752317" lon="8.650505"><ele>195.0</ele><time>2026-04-25T09:10:41.384Z</time></trkpt><trkpt lat="45.5753" lon="8.6504833"><ele>195.0</ele><time>2026-04-25T09:10:43.387Z</time></trkpt><trkpt lat="45.5753683" lon="8.6504667"><ele>195.0</ele><time>2026-04-25T09:10:45.386Z</time></trkpt><trkpt lat="45.5754333" lon="8.650445"><ele>195.0</ele><time>2026-04-25T09:10:47.387Z</time></trkpt><trkpt lat="45.5755033" lon="8.6504217"><ele>195.0</ele><time>2026-04-25T09:10:49.388Z</time></trkpt><trkpt lat="45.57557" lon="8.650405"><ele>195.0</ele><time>2026-04-25T09:10:51.387Z</time></trkpt><trkpt lat="45.5756383" lon="8.6503917"><ele>195.0</ele><time>2026-04-25T09:10:53.387Z</time></trkpt><trkpt lat="45.57571" lon="8.650375"><ele>195.0</ele><time>2026-04-25T09:10:55.385Z</time></trkpt><trkpt lat="45.5757817" lon="8.65036"><ele>195.0</ele><time>2026-04-25T09:10:57.387Z</time></trkpt><trkpt lat="45.5758567" lon="8.6503417"><ele>195.0</ele><time>2026-04-25T09:10:59.387Z</time></trkpt><trkpt lat="45.5759283" lon="8.65033"><ele>195.0</ele><time>2026-04-25T09:11:01.387Z</time></trkpt><trkpt lat="45.575995" lon="8.650305"><ele>195.0</ele><time>2026-04-25T09:11:03.387Z</time></trkpt><trkpt lat="45.57606" lon="8.6502833"><ele>195.0</ele><time>2026-04-25T09:11:05.386Z</time></trkpt><trkpt lat="45.5761483" lon="8.6502517"><ele>195.0</ele><time>2026-04-25T09:11:08.387Z</time></trkpt><trkpt lat="45.5762167" lon="8.6502367"><ele>195.0</ele><time>2026-04-25T09:11:10.387Z</time></trkpt><trkpt lat="45.5762867" lon="8.65022"><ele>195.0</ele><time>2026-04-25T09:11:12.382Z</time></trkpt><trkpt lat="45.5763567" lon="8.6501983"><ele>195.0</ele><time>2026-04-25T09:11:14.393Z</time></trkpt><trkpt lat="45.57642" lon="8.65018"><ele>195.0</ele><time>2026-04-25T09:11:16.381Z</time></trkpt><trkpt lat="45.5765083" lon="8.6501733"><ele>195.0</ele><time>2026-04-25T09:11:19.388Z</time></trkpt><trkpt lat="45.5765333" lon="8.6502983"><ele>195.0</ele><time>2026-04-25T09:11:24.388Z</time></trkpt><trkpt lat="45.5765417" lon="8.65042"><ele>195.0</ele><time>2026-04-25T09:11:26.384Z</time></trkpt><trkpt lat="45.5765517" lon="8.6505417"><ele>195.0</ele><time>2026-04-25T09:11:28.386Z</time></trkpt><trkpt lat="45.57657" lon="8.6506567"><ele>195.0</ele><time>2026-04-25T09:11:30.388Z</time></trkpt><trkpt lat="45.57658" lon="8.6507683"><ele>195.0</ele><time>2026-04-25T09:11:32.388Z</time></trkpt><trkpt lat="45.5765867" lon="8.6508767"><ele>195.0</ele><time>2026-04-25T09:11:34.387Z</time></trkpt><trkpt lat="45.5765933" lon="8.6509817"><ele>195.0</ele><time>2026-04-25T09:11:36.389Z</time></trkpt><trkpt lat="45.5766017" lon="8.6510833"><ele>195.0</ele><time>2026-04-25T09:11:38.391Z</time></trkpt><trkpt lat="45.5766083" lon="8.6511867"><ele>195.0</ele><time>2026-04-25T09:11:40.381Z</time></trkpt><trkpt lat="45.576615" lon="8.651285"><ele>195.0</ele><time>2026-04-25T09:11:42.387Z</time></trkpt><trkpt lat="45.5766217" lon="8.651385"><ele>195.0</ele><time>2026-04-25T09:11:44.389Z</time></trkpt><trkpt lat="45.5766317" lon="8.65148"><ele>195.0</ele><time>2026-04-25T09:11:46.386Z</time></trkpt><trkpt lat="45.5766467" lon="8.6515783"><ele>195.0</ele><time>2026-04-25T09:11:48.387Z</time></trkpt><trkpt lat="45.5766667" lon="8.6516767"><ele>195.0</ele><time>2026-04-25T09:11:50.39Z</time></trkpt><trkpt lat="45.576685" lon="8.6517667"><ele>195.0</ele><time>2026-04-25T09:11:52.388Z</time></trkpt><trkpt lat="45.5767133" lon="8.6518933"><ele>195.0</ele><time>2026-04-25T09:11:55.386Z</time></trkpt><trkpt lat="45.5767333" lon="8.65198"><ele>195.0</ele><time>2026-04-25T09:11:57.387Z</time></trkpt><trkpt lat="45.5767483" lon="8.6520683"><ele>195.0</ele><time>2026-04-25T09:11:59.385Z</time></trkpt><trkpt lat="45.5767583" lon="8.6521583"><ele>195.0</ele><time>2026-04-25T09:12:01.389Z</time></trkpt><trkpt lat="45.576765" lon="8.6522883"><ele>195.0</ele><time>2026-04-25T09:12:04.388Z</time></trkpt><trkpt lat="45.5767717" lon="8.6524083"><ele>195.0</ele><time>2026-04-25T09:12:07.387Z</time></trkpt><trkpt lat="45.576775" lon="8.6525333"><ele>195.0</ele><time>2026-04-25T09:12:10.386Z</time></trkpt><trkpt lat="45.5767767" lon="8.6526517"><ele>195.0</ele><time>2026-04-25T09:12:13.386Z</time></trkpt><trkpt lat="45.576775" lon="8.65276"><ele>195.0</ele><time>2026-04-25T09:12:16.387Z</time></trkpt><trkpt lat="45.5767667" lon="8.6528633"><ele>195.0</ele><time>2026-04-25T09:12:19.387Z</time></trkpt><trkpt lat="45.5767583" lon="8.652965"><ele>195.0</ele><time>2026-04-25T09:12:22.387Z</time></trkpt><trkpt lat="45.57676" lon="8.6530717"><ele>194.85714285714286</ele><time>2026-04-25T09:12:25.387Z</time></trkpt><trkpt lat="45.5767633" lon="8.6531617"><ele>194.71428571428572</ele><time>2026-04-25T09:12:28.387Z</time></trkpt><trkpt lat="45.5767717" lon="8.65328"><ele>194.57142857142856</ele><time>2026-04-25T09:12:32.388Z</time></trkpt><trkpt lat="45.576775" lon="8.653385"><ele>194.42857142857144</ele><time>2026-04-25T09:12:35.387Z</time></trkpt><trkpt lat="45.576775" lon="8.6534883"><ele>194.2857142857143</ele><time>2026-04-25T09:12:38.388Z</time></trkpt><trkpt lat="45.5767733" lon="8.6535867"><ele>194.14285714285714</ele><time>2026-04-25T09:12:41.388Z</time></trkpt><trkpt lat="45.5767733" lon="8.65369"><ele>194.0</ele><time>2026-04-25T09:12:44.388Z</time></trkpt><trkpt lat="45.57677" lon="8.6538083"><ele>193.83333333333334</ele><time>2026-04-25T09:12:47.388Z</time></trkpt><trkpt lat="45.5767717" lon="8.6539333"><ele>193.66666666666669</ele><time>2026-04-25T09:12:50.39Z</time></trkpt><trkpt lat="45.5767733" lon="8.65406"><ele>193.5</ele><time>2026-04-25T09:12:53.385Z</time></trkpt><trkpt lat="45.5767733" lon="8.6541817"><ele>193.33333333333331</ele><time>2026-04-25T09:12:56.392Z</time></trkpt><trkpt lat="45.576785" lon="8.6543"><ele>193.16666666666666</ele><time>2026-04-25T09:12:59.39Z</time></trkpt><trkpt lat="45.5767917" lon="8.6544083"><ele>193.0</ele><time>2026-04-25T09:13:02.391Z</time></trkpt><trkpt lat="45.576795" lon="8.65452"><ele>192.99999999999997</ele><time>2026-04-25T09:13:05.39Z</time></trkpt><trkpt lat="45.5767917" lon="8.654635"><ele>193.0</ele><time>2026-04-25T09:13:08.388Z</time></trkpt><trkpt lat="45.5767883" lon="8.6547583"><ele>193.0</ele><time>2026-04-25T09:13:11.387Z</time></trkpt><trkpt lat="45.5767833" lon="8.6548483"><ele>193.0</ele><time>2026-04-25T09:13:13.389Z</time></trkpt><trkpt lat="45.5767717" lon="8.6549783"><ele>192.99999999999997</ele><time>2026-04-25T09:13:16.386Z</time></trkpt><trkpt lat="45.5767633" lon="8.6551167"><ele>193.0</ele><time>2026-04-25T09:13:19.387Z</time></trkpt><trkpt lat="45.5767633" lon="8.6552233"><ele>193.33333333333331</ele><time>2026-04-25T09:13:21.387Z</time></trkpt><trkpt lat="45.576755" lon="8.6553283"><ele>193.66666666666666</ele><time>2026-04-25T09:13:23.394Z</time></trkpt><trkpt lat="45.576745" lon="8.65545"><ele>194.0</ele><time>2026-04-25T09:13:26.387Z</time></trkpt><trkpt lat="45.5767417" lon="8.6555733"><ele>194.33333333333331</ele><time>2026-04-25T09:13:29.387Z</time></trkpt><trkpt lat="45.576805" lon="8.655625"><ele>194.66666666666666</ele><time>2026-04-25T09:13:32.389Z</time></trkpt><trkpt lat="45.576885" lon="8.6556183"><ele>195.0</ele><time>2026-04-25T09:13:35.385Z</time></trkpt><trkpt lat="45.5769483" lon="8.6556033"><ele>194.83333333333334</ele><time>2026-04-25T09:13:38.388Z</time></trkpt><trkpt lat="45.5770233" lon="8.6555883"><ele>194.66666666666669</ele><time>2026-04-25T09:13:42.386Z</time></trkpt><trkpt lat="45.5770917" lon="8.6555767"><ele>194.5</ele><time>2026-04-25T09:13:45.389Z</time></trkpt><trkpt lat="45.577175" lon="8.6555617"><ele>194.33333333333334</ele><time>2026-04-25T09:13:48.388Z</time></trkpt><trkpt lat="45.5772583" lon="8.6555433"><ele>194.16666666666669</ele><time>2026-04-25T09:13:51.388Z</time></trkpt><trkpt lat="45.577335" lon="8.65552"><ele>194.0</ele><time>2026-04-25T09:13:54.386Z</time></trkpt><trkpt lat="45.5774133" lon="8.655495"><ele>194.00000000000003</ele><time>2026-04-25T09:13:57.387Z</time></trkpt><trkpt lat="45.5774983" lon="8.65547"><ele>194.0</ele><time>2026-04-25T09:14:00.387Z</time></trkpt><trkpt lat="45.5775767" lon="8.6554383"><ele>194.0</ele><time>2026-04-25T09:14:03.389Z</time></trkpt><trkpt lat="45.5776583" lon="8.655405"><ele>194.0</ele><time>2026-04-25T09:14:06.388Z</time></trkpt><trkpt lat="45.5777383" lon="8.655375"><ele>194.00000000000003</ele><time>2026-04-25T09:14:09.387Z</time></trkpt><trkpt lat="45.5778183" lon="8.6553467"><ele>194.0</ele><time>2026-04-25T09:14:12.386Z</time></trkpt><trkpt lat="45.5778983" lon="8.6553217"><ele>194.00000000000003</ele><time>2026-04-25T09:14:15.389Z</time></trkpt><trkpt lat="45.577975" lon="8.6553"><ele>194.0</ele><time>2026-04-25T09:14:18.381Z</time></trkpt><trkpt lat="45.57805" lon="8.655285"><ele>194.0</ele><time>2026-04-25T09:14:21.388Z</time></trkpt><trkpt lat="45.5781267" lon="8.6552717"><ele>194.0</ele><time>2026-04-25T09:14:24.387Z</time></trkpt><trkpt lat="45.578205" lon="8.6552533"><ele>194.00000000000003</ele><time>2026-04-25T09:14:27.386Z</time></trkpt><trkpt lat="45.5782717" lon="8.6552317"><ele>194.0</ele><time>2026-04-25T09:14:30.384Z</time></trkpt><trkpt lat="45.5783417" lon="8.655215"><ele>194.0</ele><time>2026-04-25T09:14:33.387Z</time></trkpt><trkpt lat="45.5784117" lon="8.6552"><ele>194.0</ele><time>2026-04-25T09:14:36.388Z</time></trkpt><trkpt lat="45.5784867" lon="8.6551867"><ele>194.0</ele><time>2026-04-25T09:14:40.387Z</time></trkpt><trkpt lat="45.578555" lon="8.6551783"><ele>194.0</ele><time>2026-04-25T09:14:43.383Z</time></trkpt><trkpt lat="45.5786233" lon="8.6551717"><ele>194.0</ele><time>2026-04-25T09:14:46.388Z</time></trkpt><trkpt lat="45.57869" lon="8.6551683"><ele>194.0</ele><time>2026-04-25T09:14:49.385Z</time></trkpt><trkpt lat="45.5787583" lon="8.6551733"><ele>194.0</ele><time>2026-04-25T09:14:52.388Z</time></trkpt><trkpt lat="45.5788333" lon="8.65518"><ele>194.28571428571428</ele><time>2026-04-25T09:14:55.387Z</time></trkpt><trkpt lat="45.5789" lon="8.6551733"><ele>194.57142857142858</ele><time>2026-04-25T09:14:58.386Z</time></trkpt><trkpt lat="45.578975" lon="8.6551817"><ele>194.85714285714286</ele><time>2026-04-25T09:15:02.388Z</time></trkpt><trkpt lat="45.5790583" lon="8.6551867"><ele>195.14285714285714</ele><time>2026-04-25T09:15:06.389Z</time></trkpt><trkpt lat="45.5791283" lon="8.6551967"><ele>195.42857142857144</ele><time>2026-04-25T09:15:09.386Z</time></trkpt><trkpt lat="45.57921" lon="8.6551933"><ele>195.71428571428572</ele><time>2026-04-25T09:15:12.39Z</time></trkpt><trkpt lat="45.5792733" lon="8.6551867"><ele>196.0</ele><time>2026-04-25T09:15:15.387Z</time></trkpt><trkpt lat="45.5793517" lon="8.655185"><ele>196.0</ele><time>2026-04-25T09:15:19.387Z</time></trkpt><trkpt lat="45.5794183" lon="8.6551733"><ele>196.0</ele><time>2026-04-25T09:15:22.389Z</time></trkpt><trkpt lat="45.5794867" lon="8.6551667"><ele>196.0</ele><time>2026-04-25T09:15:25.386Z</time></trkpt><trkpt lat="45.5795667" lon="8.65516"><ele>196.0</ele><time>2026-04-25T09:15:28.39Z</time></trkpt><trkpt lat="45.5796433" lon="8.65515"><ele>196.0</ele><time>2026-04-25T09:15:32.389Z</time></trkpt><trkpt lat="45.57972" lon="8.655125"><ele>196.0</ele><time>2026-04-25T09:15:36.384Z</time></trkpt><trkpt lat="45.57974" lon="8.6552133"><ele>196.0</ele><time>2026-04-25T09:15:44.387Z</time></trkpt><trkpt lat="45.579755" lon="8.6553083"><ele>196.14285714285714</ele><time>2026-04-25T09:15:50.389Z</time></trkpt><trkpt lat="45.5797817" lon="8.6554"><ele>196.28571428571428</ele><time>2026-04-25T09:15:55.388Z</time></trkpt><trkpt lat="45.579815" lon="8.6554967"><ele>196.42857142857144</ele><time>2026-04-25T09:16:42.388Z</time></trkpt><trkpt lat="45.5798467" lon="8.6556117"><ele>196.57142857142856</ele><time>2026-04-25T09:16:46.386Z</time></trkpt><trkpt lat="45.57985" lon="8.655705"><ele>196.71428571428572</ele><time>2026-04-25T09:16:48.382Z</time></trkpt><trkpt lat="45.5798517" lon="8.6557983"><ele>196.85714285714286</ele><time>2026-04-25T09:16:50.388Z</time></trkpt><trkpt lat="45.5798567" lon="8.655895"><ele>197.0</ele><time>2026-04-25T09:16:52.384Z</time></trkpt><trkpt lat="45.57986" lon="8.65603"><ele>196.85714285714286</ele><time>2026-04-25T09:16:55.386Z</time></trkpt><trkpt lat="45.579865" lon="8.6561217"><ele>196.71428571428572</ele><time>2026-04-25T09:16:57.389Z</time></trkpt><trkpt lat="45.57987" lon="8.6562133"><ele>196.57142857142856</ele><time>2026-04-25T09:16:59.387Z</time></trkpt><trkpt lat="45.579875" lon="8.656305"><ele>196.42857142857144</ele><time>2026-04-25T09:17:01.389Z</time></trkpt><trkpt lat="45.5798783" lon="8.656395"><ele>196.28571428571428</ele><time>2026-04-25T09:17:03.387Z</time></trkpt><trkpt lat="45.5798817" lon="8.6564883"><ele>196.14285714285714</ele><time>2026-04-25T09:17:05.388Z</time></trkpt><trkpt lat="45.5798867" lon="8.6565783"><ele>196.0</ele><time>2026-04-25T09:17:07.385Z</time></trkpt><trkpt lat="45.5798833" lon="8.656675"><ele>196.0</ele><time>2026-04-25T09:17:09.383Z</time></trkpt><trkpt lat="45.5798783" lon="8.6567817"><ele>196.0</ele><time>2026-04-25T09:17:11.388Z</time></trkpt><trkpt lat="45.579865" lon="8.6568883"><ele>196.0</ele><time>2026-04-25T09:17:13.383Z</time></trkpt><trkpt lat="45.57984" lon="8.6569917"><ele>196.0</ele><time>2026-04-25T09:17:15.388Z</time></trkpt><trkpt lat="45.5797967" lon="8.6570783"><ele>196.0</ele><time>2026-04-25T09:17:17.389Z</time></trkpt><trkpt lat="45.5797367" lon="8.6571367"><ele>196.0</ele><time>2026-04-25T09:17:19.392Z</time></trkpt><trkpt lat="45.57967" lon="8.65717"><ele>196.0</ele><time>2026-04-25T09:17:21.389Z</time></trkpt><trkpt lat="45.579605" lon="8.6571917"><ele>195.83333333333331</ele><time>2026-04-25T09:17:23.39Z</time></trkpt><trkpt lat="45.5795383" lon="8.6572033"><ele>195.66666666666666</ele><time>2026-04-25T09:17:25.387Z</time></trkpt><trkpt lat="45.5794733" lon="8.6572117"><ele>195.5</ele><time>2026-04-25T09:17:27.387Z</time></trkpt><trkpt lat="45.5794083" lon="8.65722"><ele>195.33333333333331</ele><time>2026-04-25T09:17:29.386Z</time></trkpt><trkpt lat="45.5793167" lon="8.6572467"><ele>195.16666666666666</ele><time>2026-04-25T09:17:32.393Z</time></trkpt><trkpt lat="45.5792367" lon="8.657305"><ele>195.0</ele><time>2026-04-25T09:17:35.39Z</time></trkpt><trkpt lat="45.5791917" lon="8.6574133"><ele>195.0</ele><time>2026-04-25T09:17:38.388Z</time></trkpt><trkpt lat="45.5791683" lon="8.6575467"><ele>195.0</ele><time>2026-04-25T09:17:41.388Z</time></trkpt><trkpt lat="45.57916" lon="8.65768"><ele>195.0</ele><time>2026-04-25T09:17:44.39Z</time></trkpt><trkpt lat="45.5791567" lon="8.6578083"><ele>195.0</ele><time>2026-04-25T09:17:47.388Z</time></trkpt><trkpt lat="45.5791467" lon="8.6579367"><ele>195.0</ele><time>2026-04-25T09:17:50.388Z</time></trkpt><trkpt lat="45.5791367" lon="8.658065"><ele>194.83333333333334</ele><time>2026-04-25T09:17:53.387Z</time></trkpt><trkpt lat="45.579125" lon="8.65819"><ele>194.66666666666669</ele><time>2026-04-25T09:17:56.389Z</time></trkpt><trkpt lat="45.57912" lon="8.6582833"><ele>194.5</ele><time>2026-04-25T09:17:58.387Z</time></trkpt><trkpt lat="45.5791133" lon="8.65838"><ele>194.33333333333334</ele><time>2026-04-25T09:18:00.387Z</time></trkpt><trkpt lat="45.5791083" lon="8.6585083"><ele>194.16666666666669</ele><time>2026-04-25T09:18:03.388Z</time></trkpt><trkpt lat="45.5791033" lon="8.658675"><ele>194.0</ele><time>2026-04-25T09:18:07.387Z</time></trkpt><trkpt lat="45.5790967" lon="8.6587967"><ele>194.33333333333334</ele><time>2026-04-25T09:18:10.387Z</time></trkpt><trkpt lat="45.5791033" lon="8.6589183"><ele>194.66666666666669</ele><time>2026-04-25T09:18:13.389Z</time></trkpt><trkpt lat="45.579115" lon="8.6590333"><ele>195.0</ele><time>2026-04-25T09:18:16.38Z</time></trkpt><trkpt lat="45.5791317" lon="8.6591467"><ele>195.33333333333331</ele><time>2026-04-25T09:18:19.389Z</time></trkpt><trkpt lat="45.5791433" lon="8.659265"><ele>195.66666666666666</ele><time>2026-04-25T09:18:22.388Z</time></trkpt><trkpt lat="45.579155" lon="8.6593567"><ele>196.0</ele><time>2026-04-25T09:18:25.387Z</time></trkpt><trkpt lat="45.57918" lon="8.6594733"><ele>195.99999999999997</ele><time>2026-04-25T09:18:29.386Z</time></trkpt><trkpt lat="45.579205" lon="8.6595817"><ele>196.0</ele><time>2026-04-25T09:18:32.389Z</time></trkpt><trkpt lat="45.5792317" lon="8.659695"><ele>196.0</ele><time>2026-04-25T09:18:35.388Z</time></trkpt><trkpt lat="45.5792583" lon="8.6597917"><ele>196.0</ele><time>2026-04-25T09:18:38.39Z</time></trkpt><trkpt lat="45.579285" lon="8.65988"><ele>195.99999999999997</ele><time>2026-04-25T09:18:41.388Z</time></trkpt><trkpt lat="45.5793183" lon="8.6599917"><ele>196.0</ele><time>2026-04-25T09:18:45.387Z</time></trkpt><trkpt lat="45.5793483" lon="8.6600783"><ele>195.99999999999997</ele><time>2026-04-25T09:18:48.389Z</time></trkpt><trkpt lat="45.5793767" lon="8.660175"><ele>196.0</ele><time>2026-04-25T09:18:51.386Z</time></trkpt><trkpt lat="45.579405" lon="8.6602817"><ele>196.0</ele><time>2026-04-25T09:18:54.387Z</time></trkpt><trkpt lat="45.5794417" lon="8.6603767"><ele>196.0</ele><time>2026-04-25T09:18:57.387Z</time></trkpt><trkpt lat="45.5794783" lon="8.66047"><ele>195.99999999999997</ele><time>2026-04-25T09:19:00.386Z</time></trkpt><trkpt lat="45.5795117" lon="8.6605633"><ele>196.0</ele><time>2026-04-25T09:19:03.388Z</time></trkpt><trkpt lat="45.5795433" lon="8.6606567"><ele>196.0</ele><time>2026-04-25T09:19:06.386Z</time></trkpt><trkpt lat="45.5795783" lon="8.6607483"><ele>196.0</ele><time>2026-04-25T09:19:09.388Z</time></trkpt><trkpt lat="45.5796083" lon="8.6608433"><ele>196.0</ele><time>2026-04-25T09:19:12.388Z</time></trkpt><trkpt lat="45.57964" lon="8.6609367"><ele>196.0</ele><time>2026-04-25T09:19:15.387Z</time></trkpt><trkpt lat="45.5796617" lon="8.6610367"><ele>196.0</ele><time>2026-04-25T09:19:18.387Z</time></trkpt><trkpt lat="45.57968" lon="8.6611267"><ele>196.0</ele><time>2026-04-25T09:19:21.388Z</time></trkpt><trkpt lat="45.57969" lon="8.6612217"><ele>196.0</ele><time>2026-04-25T09:19:25.387Z</time></trkpt><trkpt lat="45.579695" lon="8.66133"><ele>195.99999999999997</ele><time>2026-04-25T09:19:30.387Z</time></trkpt><trkpt lat="45.5796783" lon="8.6614217"><ele>196.0</ele><time>2026-04-25T09:19:34.387Z</time></trkpt><trkpt lat="45.579655" lon="8.6615267"><ele>196.0</ele><time>2026-04-25T09:19:38.392Z</time></trkpt><trkpt lat="45.579635" lon="8.6616217"><ele>196.0</ele><time>2026-04-25T09:19:41.381Z</time></trkpt><trkpt lat="45.579605" lon="8.6617367"><ele>195.99999999999997</ele><time>2026-04-25T09:19:44.382Z</time></trkpt><trkpt lat="45.5795683" lon="8.6618467"><ele>196.0</ele><time>2026-04-25T09:19:47.378Z</time></trkpt><trkpt lat="45.5795417" lon="8.6619333"><ele>195.99999999999997</ele><time>2026-04-25T09:19:49.38Z</time></trkpt><trkpt lat="45.5795017" lon="8.66203"><ele>196.0</ele><time>2026-04-25T09:19:51.381Z</time></trkpt><trkpt lat="45.5794683" lon="8.6621117"><ele>196.0</ele><time>2026-04-25T09:19:53.383Z</time></trkpt><trkpt lat="45.5794383" lon="8.6622167"><ele>196.0</ele><time>2026-04-25T09:19:56.382Z</time></trkpt><trkpt lat="45.579405" lon="8.662325"><ele>195.99999999999997</ele><time>2026-04-25T09:19:59.385Z</time></trkpt><trkpt lat="45.5793833" lon="8.6624267"><ele>196.0</ele><time>2026-04-25T09:20:02.387Z</time></trkpt><trkpt lat="45.5793617" lon="8.6625333"><ele>195.99999999999997</ele><time>2026-04-25T09:20:05.388Z</time></trkpt><trkpt lat="45.57935" lon="8.662635"><ele>196.0</ele><time>2026-04-25T09:20:08.388Z</time></trkpt><trkpt lat="45.5793517" lon="8.66274"><ele>196.0</ele><time>2026-04-25T09:20:11.385Z</time></trkpt><trkpt lat="45.5793617" lon="8.662845"><ele>196.0</ele><time>2026-04-25T09:20:14.386Z</time></trkpt><trkpt lat="45.5793783" lon="8.6629667"><ele>195.99999999999997</ele><time>2026-04-25T09:20:17.386Z</time></trkpt><trkpt lat="45.5793967" lon="8.66309"><ele>196.0</ele><time>2026-04-25T09:20:20.385Z</time></trkpt><trkpt lat="45.5794083" lon="8.663205"><ele>196.0</ele><time>2026-04-25T09:20:23.387Z</time></trkpt><trkpt lat="45.5794233" lon="8.6633033"><ele>196.0</ele><time>2026-04-25T09:20:26.389Z</time></trkpt><trkpt lat="45.5794367" lon="8.663405"><ele>196.0</ele><time>2026-04-25T09:20:29.387Z</time></trkpt><trkpt lat="45.57945" lon="8.663495"><ele>196.0</ele><time>2026-04-25T09:20:32.387Z</time></trkpt><trkpt lat="45.5794633" lon="8.6635883"><ele>196.0</ele><time>2026-04-25T09:20:35.388Z</time></trkpt><trkpt lat="45.57948" lon="8.6636783"><ele>196.0</ele><time>2026-04-25T09:20:37.387Z</time></trkpt><trkpt lat="45.5794983" lon="8.6637733"><ele>196.0</ele><time>2026-04-25T09:20:39.388Z</time></trkpt><trkpt lat="45.5795167" lon="8.66387"><ele>195.83333333333331</ele><time>2026-04-25T09:20:41.386Z</time></trkpt><trkpt lat="45.57953" lon="8.6639683"><ele>195.66666666666666</ele><time>2026-04-25T09:20:43.382Z</time></trkpt><trkpt lat="45.579545" lon="8.664075"><ele>195.5</ele><time>2026-04-25T09:20:45.385Z</time></trkpt><trkpt lat="45.5795583" lon="8.6641817"><ele>195.33333333333331</ele><time>2026-04-25T09:20:47.389Z</time></trkpt><trkpt lat="45.5795683" lon="8.6642867"><ele>195.16666666666666</ele><time>2026-04-25T09:20:49.388Z</time></trkpt><trkpt lat="45.57956" lon="8.66438"><ele>195.0</ele><time>2026-04-25T09:20:51.386Z</time></trkpt><trkpt lat="45.5795183" lon="8.66451"><ele>195.0</ele><time>2026-04-25T09:21:12.386Z</time></trkpt><trkpt lat="45.5794667" lon="8.6645867"><ele>195.0</ele><time>2026-04-25T09:21:15.386Z</time></trkpt><trkpt lat="45.57942" lon="8.664655"><ele>195.0</ele><time>2026-04-25T09:21:17.386Z</time></trkpt><trkpt lat="45.5793567" lon="8.6647383"><ele>195.0</ele><time>2026-04-25T09:21:19.388Z</time></trkpt><trkpt lat="45.5793" lon="8.6648083"><ele>195.0</ele><time>2026-04-25T09:21:21.386Z</time></trkpt><trkpt lat="45.57924" lon="8.6648817"><ele>195.0</ele><time>2026-04-25T09:21:23.385Z</time></trkpt><trkpt lat="45.5791883" lon="8.664955"><ele>195.0</ele><time>2026-04-25T09:21:25.38Z</time></trkpt><trkpt lat="45.5791433" lon="8.665035"><ele>195.0</ele><time>2026-04-25T09:21:27.386Z</time></trkpt><trkpt lat="45.5791017" lon="8.665105"><ele>195.0</ele><time>2026-04-25T09:21:29.381Z</time></trkpt><trkpt lat="45.579055" lon="8.6651933"><ele>195.0</ele><time>2026-04-25T09:21:31.386Z</time></trkpt><trkpt lat="45.5790067" lon="8.6652783"><ele>195.0</ele><time>2026-04-25T09:21:33.387Z</time></trkpt><trkpt lat="45.5789517" lon="8.6653617"><ele>195.0</ele><time>2026-04-25T09:21:35.386Z</time></trkpt><trkpt lat="45.57891" lon="8.665435"><ele>195.0</ele><time>2026-04-25T09:21:37.386Z</time></trkpt><trkpt lat="45.5788633" lon="8.66552"><ele>194.83333333333334</ele><time>2026-04-25T09:21:40.385Z</time></trkpt><trkpt lat="45.5788267" lon="8.6655933"><ele>194.66666666666669</ele><time>2026-04-25T09:21:44.391Z</time></trkpt><trkpt lat="45.5787767" lon="8.6656917"><ele>194.5</ele><time>2026-04-25T09:21:48.381Z</time></trkpt><trkpt lat="45.5787333" lon="8.665775"><ele>194.33333333333334</ele><time>2026-04-25T09:21:51.383Z</time></trkpt><trkpt lat="45.5786833" lon="8.665865"><ele>194.16666666666669</ele><time>2026-04-25T09:21:55.388Z</time></trkpt><trkpt lat="45.5786433" lon="8.6659667"><ele>194.0</ele><time>2026-04-25T09:21:59.388Z</time></trkpt><trkpt lat="45.5786133" lon="8.66606"><ele>194.50000000000003</ele><time>2026-04-25T09:22:03.387Z</time></trkpt><trkpt lat="45.578585" lon="8.66616"><ele>195.0</ele><time>2026-04-25T09:22:06.381Z</time></trkpt><trkpt lat="45.5785433" lon="8.66625"><ele>195.5</ele><time>2026-04-25T09:22:09.388Z</time></trkpt><trkpt lat="45.5785017" lon="8.6663533"><ele>196.0</ele><time>2026-04-25T09:22:12.386Z</time></trkpt><trkpt lat="45.578465" lon="8.6664483"><ele>196.50000000000003</ele><time>2026-04-25T09:22:15.387Z</time></trkpt><trkpt lat="45.578425" lon="8.6665433"><ele>197.0</ele><time>2026-04-25T09:22:18.389Z</time></trkpt><trkpt lat="45.5783817" lon="8.666645"><ele>197.0</ele><time>2026-04-25T09:22:21.386Z</time></trkpt><trkpt lat="45.5783467" lon="8.666725"><ele>197.0</ele><time>2026-04-25T09:22:23.386Z</time></trkpt><trkpt lat="45.5783133" lon="8.6668067"><ele>197.0</ele><time>2026-04-25T09:22:25.388Z</time></trkpt><trkpt lat="45.5782733" lon="8.6668767"><ele>197.0</ele><time>2026-04-25T09:22:27.386Z</time></trkpt><trkpt lat="45.5782317" lon="8.6669567"><ele>197.0</ele><time>2026-04-25T09:22:29.384Z</time></trkpt><trkpt lat="45.5781917" lon="8.66703"><ele>197.0</ele><time>2026-04-25T09:22:31.384Z</time></trkpt><trkpt lat="45.5781517" lon="8.6671033"><ele>197.0</ele><time>2026-04-25T09:22:33.386Z</time></trkpt><trkpt lat="45.5780933" lon="8.66721"><ele>196.83333333333334</ele><time>2026-04-25T09:22:36.387Z</time></trkpt><trkpt lat="45.578035" lon="8.6672983"><ele>196.66666666666669</ele><time>2026-04-25T09:22:39.385Z</time></trkpt><trkpt lat="45.5779833" lon="8.6673783"><ele>196.5</ele><time>2026-04-25T09:22:42.387Z</time></trkpt><trkpt lat="45.5779317" lon="8.6674517"><ele>196.33333333333331</ele><time>2026-04-25T09:22:45.384Z</time></trkpt><trkpt lat="45.5778783" lon="8.6675233"><ele>196.16666666666666</ele><time>2026-04-25T09:22:48.386Z</time></trkpt><trkpt lat="45.5778167" lon="8.6676017"><ele>196.0</ele><time>2026-04-25T09:22:51.386Z</time></trkpt><trkpt lat="45.5777683" lon="8.6676767"><ele>195.99999999999997</ele><time>2026-04-25T09:22:54.386Z</time></trkpt><trkpt lat="45.5777117" lon="8.6677517"><ele>196.0</ele><time>2026-04-25T09:22:57.385Z</time></trkpt><trkpt lat="45.5776533" lon="8.6678317"><ele>196.0</ele><time>2026-04-25T09:23:00.387Z</time></trkpt><trkpt lat="45.5776033" lon="8.6678917"><ele>196.0</ele><time>2026-04-25T09:23:03.386Z</time></trkpt><trkpt lat="45.5775567" lon="8.667955"><ele>195.99999999999997</ele><time>2026-04-25T09:23:06.387Z</time></trkpt><trkpt lat="45.5775033" lon="8.668045"><ele>196.0</ele><time>2026-04-25T09:23:10.387Z</time></trkpt><trkpt lat="45.5774433" lon="8.66814"><ele>195.33333333333331</ele><time>2026-04-25T09:23:13.386Z</time></trkpt><trkpt lat="45.577405" lon="8.6682533"><ele>194.66666666666666</ele><time>2026-04-25T09:23:16.387Z</time></trkpt><trkpt lat="45.57736" lon="8.6683483"><ele>194.0</ele><time>2026-04-25T09:23:19.388Z</time></trkpt><trkpt lat="45.5773233" lon="8.6684417"><ele>193.33333333333331</ele><time>2026-04-25T09:23:23.388Z</time></trkpt><trkpt lat="45.5772867" lon="8.66853"><ele>192.66666666666666</ele><time>2026-04-25T09:23:27.385Z</time></trkpt><trkpt lat="45.5772433" lon="8.6686267"><ele>192.0</ele><time>2026-04-25T09:23:31.386Z</time></trkpt><trkpt lat="45.5772017" lon="8.6687"><ele>191.57142857142856</ele><time>2026-04-25T09:23:35.386Z</time></trkpt><trkpt lat="45.5771567" lon="8.6687667"><ele>191.14285714285714</ele><time>2026-04-25T09:23:39.386Z</time></trkpt><trkpt lat="45.5770983" lon="8.66884"><ele>190.71428571428572</ele><time>2026-04-25T09:23:44.388Z</time></trkpt><trkpt lat="45.5770417" lon="8.6689"><ele>190.28571428571428</ele><time>2026-04-25T09:23:48.388Z</time></trkpt><trkpt lat="45.5769917" lon="8.66897"><ele>189.85714285714286</ele><time>2026-04-25T09:23:52.385Z</time></trkpt><trkpt lat="45.5769417" lon="8.66904"><ele>189.42857142857142</ele><time>2026-04-25T09:23:56.389Z</time></trkpt><trkpt lat="45.5768817" lon="8.6690917"><ele>189.0</ele><time>2026-04-25T09:23:59.387Z</time></trkpt><trkpt lat="45.5768283" lon="8.669145"><ele>189.42857142857142</ele><time>2026-04-25T09:24:03.387Z</time></trkpt><trkpt lat="45.576765" lon="8.6691967"><ele>189.85714285714286</ele><time>2026-04-25T09:24:07.389Z</time></trkpt><trkpt lat="45.5766933" lon="8.669245"><ele>190.28571428571428</ele><time>2026-04-25T09:24:11.389Z</time></trkpt><trkpt lat="45.5766367" lon="8.6692983"><ele>190.71428571428572</ele><time>2026-04-25T09:24:14.388Z</time></trkpt><trkpt lat="45.5765817" lon="8.6693483"><ele>191.14285714285714</ele><time>2026-04-25T09:24:18.387Z</time></trkpt><trkpt lat="45.576515" lon="8.66941"><ele>191.57142857142856</ele><time>2026-04-25T09:24:22.386Z</time></trkpt><trkpt lat="45.576455" lon="8.6694783"><ele>192.0</ele><time>2026-04-25T09:24:26.388Z</time></trkpt><trkpt lat="45.5764067" lon="8.6695383"><ele>191.99999999999997</ele><time>2026-04-25T09:24:30.386Z</time></trkpt><trkpt lat="45.5763567" lon="8.6695983"><ele>192.0</ele><time>2026-04-25T09:24:35.385Z</time></trkpt><trkpt lat="45.576305" lon="8.6696633"><ele>192.0</ele><time>2026-04-25T09:24:42.386Z</time></trkpt><trkpt lat="45.57625" lon="8.66973"><ele>192.0</ele><time>2026-04-25T09:24:47.387Z</time></trkpt><trkpt lat="45.5761933" lon="8.6697967"><ele>192.0</ele><time>2026-04-25T09:24:51.388Z</time></trkpt><trkpt lat="45.5761317" lon="8.66987"><ele>191.99999999999997</ele><time>2026-04-25T09:24:55.387Z</time></trkpt><trkpt lat="45.5760683" lon="8.66993"><ele>192.0</ele><time>2026-04-25T09:24:59.386Z</time></trkpt><trkpt lat="45.5760167" lon="8.6699933"><ele>191.85714285714283</ele><time>2026-04-25T09:25:03.388Z</time></trkpt><trkpt lat="45.5759467" lon="8.6700567"><ele>191.71428571428572</ele><time>2026-04-25T09:25:07.387Z</time></trkpt><trkpt lat="45.5758967" lon="8.6701133"><ele>191.57142857142856</ele><time>2026-04-25T09:25:10.388Z</time></trkpt><trkpt lat="45.57585" lon="8.670185"><ele>191.42857142857142</ele><time>2026-04-25T09:25:16.388Z</time></trkpt><trkpt lat="45.5757933" lon="8.6702417"><ele>191.28571428571428</ele><time>2026-04-25T09:25:21.389Z</time></trkpt><trkpt lat="45.5757367" lon="8.6702833"><ele>191.14285714285714</ele><time>2026-04-25T09:25:25.386Z</time></trkpt><trkpt lat="45.5756867" lon="8.6703467"><ele>191.0</ele><time>2026-04-25T09:25:31.388Z</time></trkpt><trkpt lat="45.5756383" lon="8.670425"><ele>191.0</ele><time>2026-04-25T09:25:35.388Z</time></trkpt><trkpt lat="45.5755967" lon="8.6705"><ele>191.0</ele><time>2026-04-25T09:25:39.386Z</time></trkpt><trkpt lat="45.5755567" lon="8.6705733"><ele>191.0</ele><time>2026-04-25T09:25:45.392Z</time></trkpt><trkpt lat="45.5754917" lon="8.67063"><ele>191.0</ele><time>2026-04-25T09:25:51.387Z</time></trkpt><trkpt lat="45.5754283" lon="8.6706883"><ele>191.0</ele><time>2026-04-25T09:25:56.387Z</time></trkpt><trkpt lat="45.5753617" lon="8.6707217"><ele>191.0</ele><time>2026-04-25T09:26:00.39Z</time></trkpt><trkpt lat="45.5752833" lon="8.67076"><ele>191.0</ele><time>2026-04-25T09:26:03.39Z</time></trkpt><trkpt lat="45.5752117" lon="8.670795"><ele>191.0</ele><time>2026-04-25T09:26:07.386Z</time></trkpt><trkpt lat="45.575125" lon="8.6708283"><ele>191.0</ele><time>2026-04-25T09:26:11.383Z</time></trkpt><trkpt lat="45.5750633" lon="8.6708483"><ele>191.0</ele><time>2026-04-25T09:26:14.388Z</time></trkpt><trkpt lat="45.5749833" lon="8.6708867"><ele>191.0</ele><time>2026-04-25T09:26:18.386Z</time></trkpt><trkpt lat="45.5749117" lon="8.6709433"><ele>191.0</ele><time>2026-04-25T09:26:21.387Z</time></trkpt><trkpt lat="45.57487" lon="8.671025"><ele>191.0</ele><time>2026-04-25T09:26:28.383Z</time></trkpt><trkpt lat="45.5748567" lon="8.671125"><ele>190.66666666666666</ele><time>2026-04-25T09:26:32.389Z</time></trkpt><trkpt lat="45.5748383" lon="8.67122"><ele>190.33333333333331</ele><time>2026-04-25T09:26:35.386Z</time></trkpt><trkpt lat="45.5748267" lon="8.67132"><ele>190.0</ele><time>2026-04-25T09:26:38.389Z</time></trkpt><trkpt lat="45.574825" lon="8.6714483"><ele>189.66666666666666</ele><time>2026-04-25T09:26:41.386Z</time></trkpt><trkpt lat="45.5748317" lon="8.6715433"><ele>189.33333333333334</ele><time>2026-04-25T09:26:43.386Z</time></trkpt><trkpt lat="45.5748317" lon="8.6716733"><ele>189.0</ele><time>2026-04-25T09:26:46.386Z</time></trkpt><trkpt lat="45.5748367" lon="8.6717733"><ele>189.0</ele><time>2026-04-25T09:26:49.385Z</time></trkpt><trkpt lat="45.5748433" lon="8.67189"><ele>189.0</ele><time>2026-04-25T09:26:52.386Z</time></trkpt><trkpt lat="45.5748533" lon="8.672015"><ele>189.0</ele><time>2026-04-25T09:26:55.386Z</time></trkpt><trkpt lat="45.5748567" lon="8.6721233"><ele>189.0</ele><time>2026-04-25T09:26:58.386Z</time></trkpt><trkpt lat="45.5748433" lon="8.6722417"><ele>189.0</ele><time>2026-04-25T09:27:01.385Z</time></trkpt><trkpt lat="45.574835" lon="8.6723317"><ele>189.0</ele><time>2026-04-25T09:27:04.386Z</time></trkpt><trkpt lat="45.5748133" lon="8.6724367"><ele>188.85714285714286</ele><time>2026-04-25T09:27:09.385Z</time></trkpt><trkpt lat="45.57479" lon="8.672535"><ele>188.71428571428572</ele><time>2026-04-25T09:27:13.386Z</time></trkpt><trkpt lat="45.5747717" lon="8.672625"><ele>188.57142857142856</ele><time>2026-04-25T09:27:17.385Z</time></trkpt><trkpt lat="45.57475" lon="8.67273"><ele>188.42857142857144</ele><time>2026-04-25T09:27:20.388Z</time></trkpt><trkpt lat="45.574735" lon="8.6728483"><ele>188.28571428571428</ele><time>2026-04-25T09:27:23.389Z</time></trkpt><trkpt lat="45.5747133" lon="8.672955"><ele>188.14285714285714</ele><time>2026-04-25T09:27:26.383Z</time></trkpt><trkpt lat="45.5746933" lon="8.6730533"><ele>188.0</ele><time>2026-04-25T09:27:29.388Z</time></trkpt><trkpt lat="45.574695" lon="8.6731483"><ele>188.0</ele><time>2026-04-25T09:27:32.388Z</time></trkpt><trkpt lat="45.574685" lon="8.6732433"><ele>188.0</ele><time>2026-04-25T09:27:37.387Z</time></trkpt><trkpt lat="45.57466" lon="8.6733283"><ele>188.0</ele><time>2026-04-25T09:27:42.386Z</time></trkpt><trkpt lat="45.57463" lon="8.6734083"><ele>188.0</ele><time>2026-04-25T09:27:46.386Z</time></trkpt><trkpt lat="45.5746017" lon="8.673495"><ele>188.0</ele><time>2026-04-25T09:27:50.389Z</time></trkpt><trkpt lat="45.5745633" lon="8.673595"><ele>188.0</ele><time>2026-04-25T09:27:54.387Z</time></trkpt><trkpt lat="45.57453" lon="8.6736717"><ele>188.0</ele><time>2026-04-25T09:27:58.387Z</time></trkpt><trkpt lat="45.5745" lon="8.6737633"><ele>188.66666666666666</ele><time>2026-04-25T09:28:04.388Z</time></trkpt><trkpt lat="45.574465" lon="8.67386"><ele>189.33333333333331</ele><time>2026-04-25T09:28:40.383Z</time></trkpt><trkpt lat="45.5744233" lon="8.673965"><ele>190.0</ele><time>2026-04-25T09:28:44.387Z</time></trkpt><trkpt lat="45.574375" lon="8.6740617"><ele>190.66666666666666</ele><time>2026-04-25T09:28:47.388Z</time></trkpt><trkpt lat="45.574345" lon="8.6741433"><ele>191.33333333333334</ele><time>2026-04-25T09:28:49.391Z</time></trkpt><trkpt lat="45.5743083" lon="8.674245"><ele>192.0</ele><time>2026-04-25T09:28:52.387Z</time></trkpt><trkpt lat="45.5742767" lon="8.67435"><ele>191.16666666666666</ele><time>2026-04-25T09:28:56.388Z</time></trkpt><trkpt lat="45.5742567" lon="8.6744417"><ele>190.33333333333334</ele><time>2026-04-25T09:28:59.388Z</time></trkpt><trkpt lat="45.5742067" lon="8.6745117"><ele>189.5</ele><time>2026-04-25T09:29:03.385Z</time></trkpt><trkpt lat="45.574165" lon="8.674615"><ele>188.66666666666669</ele><time>2026-04-25T09:29:07.385Z</time></trkpt><trkpt lat="45.574125" lon="8.674705"><ele>187.83333333333334</ele><time>2026-04-25T09:29:10.389Z</time></trkpt><trkpt lat="45.5740733" lon="8.6747783"><ele>187.0</ele><time>2026-04-25T09:29:13.385Z</time></trkpt><trkpt lat="45.5740167" lon="8.6748633"><ele>187.0</ele><time>2026-04-25T09:29:16.386Z</time></trkpt><trkpt lat="45.57395" lon="8.6749617"><ele>187.0</ele><time>2026-04-25T09:29:19.389Z</time></trkpt><trkpt lat="45.5739033" lon="8.6750317"><ele>187.0</ele><time>2026-04-25T09:29:21.389Z</time></trkpt><trkpt lat="45.5738517" lon="8.6750983"><ele>187.0</ele><time>2026-04-25T09:29:23.387Z</time></trkpt><trkpt lat="45.5737883" lon="8.6751883"><ele>187.0</ele><time>2026-04-25T09:29:26.389Z</time></trkpt><trkpt lat="45.57373" lon="8.675275"><ele>187.0</ele><time>2026-04-25T09:29:29.388Z</time></trkpt><trkpt lat="45.5736783" lon="8.6753667"><ele>186.5</ele><time>2026-04-25T09:29:32.388Z</time></trkpt><trkpt lat="45.5736467" lon="8.6754683"><ele>186.0</ele><time>2026-04-25T09:29:35.386Z</time></trkpt><trkpt lat="45.5736333" lon="8.6755883"><ele>185.5</ele><time>2026-04-25T09:29:39.385Z</time></trkpt><trkpt lat="45.5736317" lon="8.6756817"><ele>185.0</ele><time>2026-04-25T09:29:42.386Z</time></trkpt><trkpt lat="45.5736383" lon="8.6757867"><ele>184.5</ele><time>2026-04-25T09:29:46.384Z</time></trkpt><trkpt lat="45.5736683" lon="8.675875"><ele>184.0</ele><time>2026-04-25T09:29:50.389Z</time></trkpt><trkpt lat="45.5737283" lon="8.6759583"><ele>183.66666666666669</ele><time>2026-04-25T09:29:54.384Z</time></trkpt><trkpt lat="45.5737917" lon="8.6760033"><ele>183.33333333333334</ele><time>2026-04-25T09:29:57.383Z</time></trkpt><trkpt lat="45.5738633" lon="8.6760433"><ele>183.0</ele><time>2026-04-25T09:30:00.389Z</time></trkpt><trkpt lat="45.5739267" lon="8.67608"><ele>182.66666666666666</ele><time>2026-04-25T09:30:03.387Z</time></trkpt><trkpt lat="45.5740117" lon="8.6760983"><ele>182.33333333333331</ele><time>2026-04-25T09:30:07.388Z</time></trkpt><trkpt lat="45.5740833" lon="8.67613"><ele>182.0</ele><time>2026-04-25T09:30:10.389Z</time></trkpt><trkpt lat="45.5741517" lon="8.6761667"><ele>182.0</ele><time>2026-04-25T09:30:13.392Z</time></trkpt><trkpt lat="45.5742267" lon="8.6761817"><ele>182.0</ele><time>2026-04-25T09:30:17.387Z</time></trkpt><trkpt lat="45.5742767" lon="8.67626"><ele>182.0</ele><time>2026-04-25T09:30:22.385Z</time></trkpt><trkpt lat="45.57431" lon="8.6763633"><ele>182.0</ele><time>2026-04-25T09:30:26.39Z</time></trkpt><trkpt lat="45.5743733" lon="8.6763933"><ele>182.0</ele><time>2026-04-25T09:30:30.389Z</time></trkpt><trkpt lat="45.5744383" lon="8.67644"><ele>182.0</ele><time>2026-04-25T09:30:35.389Z</time></trkpt><trkpt lat="45.5745133" lon="8.6764833"><ele>182.42857142857142</ele><time>2026-04-25T09:30:39.38Z</time></trkpt><trkpt lat="45.5745867" lon="8.6764683"><ele>182.85714285714286</ele><time>2026-04-25T09:30:43.386Z</time></trkpt><trkpt lat="45.5746417" lon="8.6765317"><ele>183.28571428571428</ele><time>2026-04-25T09:30:50.389Z</time></trkpt><trkpt lat="45.57471" lon="8.6765217"><ele>183.71428571428572</ele><time>2026-04-25T09:31:35.389Z</time></trkpt><trkpt lat="45.574765" lon="8.6764533"><ele>184.14285714285714</ele><time>2026-04-25T09:31:41.387Z</time></trkpt><trkpt lat="45.5748283" lon="8.6764"><ele>184.57142857142856</ele><time>2026-04-25T09:31:47.387Z</time></trkpt><trkpt lat="45.5748717" lon="8.6763333"><ele>185.0</ele><time>2026-04-25T09:31:52.385Z</time></trkpt><trkpt lat="45.574915" lon="8.6762567"><ele>184.99999999999997</ele><time>2026-04-25T09:31:58.387Z</time></trkpt><trkpt lat="45.574855" lon="8.67621"><ele>185.0</ele><time>2026-04-25T09:32:16.385Z</time></trkpt><trkpt lat="45.5748133" lon="8.6761417"><ele>185.0</ele><time>2026-04-25T09:32:21.386Z</time></trkpt><trkpt lat="45.5747433" lon="8.6760867"><ele>185.0</ele><time>2026-04-25T09:32:26.391Z</time></trkpt><trkpt lat="45.5746783" lon="8.6760433"><ele>185.0</ele><time>2026-04-25T09:32:30.383Z</time></trkpt><trkpt lat="45.5746117" lon="8.676"><ele>184.99999999999997</ele><time>2026-04-25T09:32:34.387Z</time></trkpt><trkpt lat="45.57455" lon="8.675975"><ele>185.0</ele><time>2026-04-25T09:32:37.385Z</time></trkpt><trkpt lat="45.57447" lon="8.675945"><ele>184.57142857142856</ele><time>2026-04-25T09:32:41.388Z</time></trkpt><trkpt lat="45.574405" lon="8.6759117"><ele>184.14285714285714</ele><time>2026-04-25T09:32:44.39Z</time></trkpt><trkpt lat="45.5743467" lon="8.67587"><ele>183.71428571428572</ele><time>2026-04-25T09:32:47.383Z</time></trkpt><trkpt lat="45.5742833" lon="8.6758333"><ele>183.28571428571428</ele><time>2026-04-25T09:32:51.386Z</time></trkpt><trkpt lat="45.5742233" lon="8.675805"><ele>182.85714285714286</ele><time>2026-04-25T09:32:56.389Z</time></trkpt><trkpt lat="45.574195" lon="8.675905"><ele>182.42857142857142</ele><time>2026-04-25T09:33:02.388Z</time></trkpt><trkpt lat="45.5742183" lon="8.6759967"><ele>182.0</ele><time>2026-04-25T09:33:06.387Z</time></trkpt><trkpt lat="45.5742467" lon="8.67608"><ele>182.0</ele><time>2026-04-25T09:33:10.388Z</time></trkpt><trkpt lat="45.5742817" lon="8.6761817"><ele>182.0</ele><time>2026-04-25T09:33:17.386Z</time></trkpt><trkpt lat="45.5742883" lon="8.6762783"><ele>182.0</ele><time>2026-04-25T09:33:21.386Z</time></trkpt><trkpt lat="45.574335" lon="8.67634"><ele>182.0</ele><time>2026-04-25T09:33:25.385Z</time></trkpt><trkpt lat="45.5743817" lon="8.676405"><ele>182.0</ele><time>2026-04-25T09:34:03.385Z</time></trkpt><trkpt lat="45.5744417" lon="8.6764383"><ele>182.0</ele><time>2026-04-25T09:34:07.384Z</time></trkpt><trkpt lat="45.5745167" lon="8.6764183"><ele>182.0</ele><time>2026-04-25T09:34:11.386Z</time></trkpt><trkpt lat="45.5745783" lon="8.6764633"><ele>182.42857142857142</ele><time>2026-04-25T09:34:16.387Z</time></trkpt><trkpt lat="45.5746367" lon="8.6765283"><ele>182.85714285714286</ele><time>2026-04-25T09:34:20.387Z</time></trkpt><trkpt lat="45.57471" lon="8.676515"><ele>183.28571428571428</ele><time>2026-04-25T09:34:25.385Z</time></trkpt><trkpt lat="45.574775" lon="8.676475"><ele>183.71428571428572</ele><time>2026-04-25T09:34:32.388Z</time></trkpt><trkpt lat="45.57484" lon="8.6764267"><ele>184.14285714285714</ele><time>2026-04-25T09:34:37.386Z</time></trkpt><trkpt lat="45.57488" lon="8.6763533"><ele>184.57142857142856</ele><time>2026-04-25T09:34:42.387Z</time></trkpt><trkpt lat="45.574935" lon="8.67627"><ele>185.0</ele><time>2026-04-25T09:34:47.38Z</time></trkpt><trkpt lat="45.5748733" lon="8.6762933"><ele>184.99999999999997</ele><time>2026-04-25T09:35:01.385Z</time></trkpt><trkpt lat="45.5748367" lon="8.67621"><ele>185.0</ele><time>2026-04-25T09:35:06.384Z</time></trkpt><trkpt lat="45.5747917" lon="8.6761467"><ele>185.0</ele><time>2026-04-25T09:35:10.386Z</time></trkpt><trkpt lat="45.5747267" lon="8.6761067"><ele>185.0</ele><time>2026-04-25T09:35:14.389Z</time></trkpt><trkpt lat="45.57466" lon="8.6760583"><ele>185.0</ele><time>2026-04-25T09:35:18.387Z</time></trkpt><trkpt lat="45.5746017" lon="8.6760233"><ele>184.99999999999997</ele><time>2026-04-25T09:35:22.386Z</time></trkpt><trkpt lat="45.5745333" lon="8.675995"><ele>185.0</ele><time>2026-04-25T09:35:25.387Z</time></trkpt><trkpt lat="45.574465" lon="8.6759633"><ele>184.5</ele><time>2026-04-25T09:35:29.388Z</time></trkpt><trkpt lat="45.5743917" lon="8.6759283"><ele>184.0</ele><time>2026-04-25T09:35:32.388Z</time></trkpt><trkpt lat="45.57433" lon="8.67589"><ele>183.5</ele><time>2026-04-25T09:35:35.388Z</time></trkpt><trkpt lat="45.574295" lon="8.6757733"><ele>183.0</ele><time>2026-04-25T09:37:27.382Z</time></trkpt><trkpt lat="45.5743133" lon="8.6756867"><ele>182.5</ele><time>2026-04-25T09:38:28.388Z</time></trkpt><trkpt lat="45.574355" lon="8.675795"><ele>182.0</ele><time>2026-04-25T09:40:14.386Z</time></trkpt><trkpt lat="45.5744167" lon="8.675835"><ele>182.0</ele><time>2026-04-25T09:40:18.388Z</time></trkpt><trkpt lat="45.5744967" lon="8.675845"><ele>182.0</ele><time>2026-04-25T09:40:22.387Z</time></trkpt><trkpt lat="45.57456" lon="8.6758567"><ele>182.0</ele><time>2026-04-25T09:40:26.39Z</time></trkpt><trkpt lat="45.57462" lon="8.6759133"><ele>182.0</ele><time>2026-04-25T09:40:30.386Z</time></trkpt><trkpt lat="45.574695" lon="8.675955"><ele>182.0</ele><time>2026-04-25T09:40:34.387Z</time></trkpt><trkpt lat="45.5747517" lon="8.675995"><ele>182.0</ele><time>2026-04-25T09:40:37.387Z</time></trkpt><trkpt lat="45.5747933" lon="8.6760867"><ele>182.0</ele><time>2026-04-25T09:40:43.388Z</time></trkpt><trkpt lat="45.5748267" lon="8.6761667"><ele>182.42857142857142</ele><time>2026-04-25T09:40:47.389Z</time></trkpt><trkpt lat="45.574895" lon="8.6761767"><ele>182.85714285714286</ele><time>2026-04-25T09:40:56.389Z</time></trkpt><trkpt lat="45.57494" lon="8.6762583"><ele>183.28571428571428</ele><time>2026-04-25T09:41:08.387Z</time></trkpt><trkpt lat="45.5749417" lon="8.6763483"><ele>183.71428571428572</ele><time>2026-04-25T09:41:13.388Z</time></trkpt><trkpt lat="45.5748917" lon="8.67643"><ele>184.14285714285714</ele><time>2026-04-25T09:41:20.39Z</time></trkpt><trkpt lat="45.574855" lon="8.6765033"><ele>184.57142857142856</ele><time>2026-04-25T09:41:27.38Z</time></trkpt><trkpt lat="45.5748083" lon="8.676585"><ele>185.0</ele><time>2026-04-25T09:41:40.386Z</time></trkpt><trkpt lat="45.574725" lon="8.676595"><ele>184.99999999999997</ele><time>2026-04-25T09:41:44.388Z</time></trkpt><trkpt lat="45.5746567" lon="8.6766033"><ele>185.0</ele><time>2026-04-25T09:41:47.388Z</time></trkpt><trkpt lat="45.574575" lon="8.676605"><ele>185.0</ele><time>2026-04-25T09:41:51.389Z</time></trkpt><trkpt lat="45.5745117" lon="8.676575"><ele>185.0</ele><time>2026-04-25T09:41:55.387Z</time></trkpt><trkpt lat="45.5744783" lon="8.6764967"><ele>185.0</ele><time>2026-04-25T09:42:00.389Z</time></trkpt><trkpt lat="45.574495" lon="8.6763983"><ele>184.99999999999997</ele><time>2026-04-25T09:42:04.389Z</time></trkpt><trkpt lat="45.5744683" lon="8.6762883"><ele>185.0</ele><time>2026-04-25T09:42:07.39Z</time></trkpt><trkpt lat="45.574445" lon="8.6761783"><ele>184.57142857142856</ele><time>2026-04-25T09:42:10.389Z</time></trkpt><trkpt lat="45.5744217" lon="8.676085"><ele>184.14285714285714</ele><time>2026-04-25T09:42:12.387Z</time></trkpt><trkpt lat="45.5743983" lon="8.6759817"><ele>183.71428571428572</ele><time>2026-04-25T09:42:14.385Z</time></trkpt><trkpt lat="45.574355" lon="8.6759117"><ele>183.28571428571428</ele><time>2026-04-25T09:42:16.387Z</time></trkpt><trkpt lat="45.5742733" lon="8.675945"><ele>182.85714285714286</ele><time>2026-04-25T09:42:19.388Z</time></trkpt><trkpt lat="45.57427" lon="8.6760517"><ele>182.42857142857142</ele><time>2026-04-25T09:42:23.387Z</time></trkpt><trkpt lat="45.5742967" lon="8.676145"><ele>182.0</ele><time>2026-04-25T09:42:29.388Z</time></trkpt><trkpt lat="45.5743217" lon="8.67624"><ele>182.0</ele><time>2026-04-25T09:42:34.388Z</time></trkpt><trkpt lat="45.57433" lon="8.676335"><ele>182.0</ele><time>2026-04-25T09:42:38.388Z</time></trkpt><trkpt lat="45.5743933" lon="8.676375"><ele>182.0</ele><time>2026-04-25T09:42:46.387Z</time></trkpt><trkpt lat="45.57446" lon="8.6763683"><ele>182.0</ele><time>2026-04-25T09:42:50.387Z</time></trkpt><trkpt lat="45.5744617" lon="8.6762683"><ele>182.0</ele><time>2026-04-25T09:42:56.387Z</time></trkpt><trkpt lat="45.5744417" lon="8.6761767"><ele>182.0</ele><time>2026-04-25T09:43:00.39Z</time></trkpt><trkpt lat="45.5744117" lon="8.67607"><ele>182.0</ele><time>2026-04-25T09:43:03.386Z</time></trkpt><trkpt lat="45.5743867" lon="8.6759817"><ele>182.0</ele><time>2026-04-25T09:43:05.39Z</time></trkpt><trkpt lat="45.57434" lon="8.6759183"><ele>182.0</ele><time>2026-04-25T09:43:07.386Z</time></trkpt><trkpt lat="45.5742767" lon="8.6759233"><ele>182.0</ele><time>2026-04-25T09:43:09.387Z</time></trkpt><trkpt lat="45.574245" lon="8.67601"><ele>182.0</ele><time>2026-04-25T09:43:14.387Z</time></trkpt><trkpt lat="45.5742067" lon="8.6760833"><ele>182.0</ele><time>2026-04-25T09:43:24.382Z</time></trkpt><trkpt lat="45.5741567" lon="8.67602"><ele>182.0</ele><time>2026-04-25T09:43:29.381Z</time></trkpt><trkpt lat="45.574125" lon="8.6759183"><ele>182.0</ele><time>2026-04-25T09:43:34.389Z</time></trkpt><trkpt lat="45.5741083" lon="8.6758133"><ele>182.0</ele><time>2026-04-25T09:43:38.39Z</time></trkpt><trkpt lat="45.5741517" lon="8.6757467"><ele>182.0</ele><time>2026-04-25T09:43:41.387Z</time></trkpt><trkpt lat="45.5742267" lon="8.6756967"><ele>182.0</ele><time>2026-04-25T09:43:45.387Z</time></trkpt><trkpt lat="45.5742883" lon="8.67572"><ele>182.0</ele><time>2026-04-25T09:43:48.388Z</time></trkpt><trkpt lat="45.57436" lon="8.6757617"><ele>182.0</ele><time>2026-04-25T09:43:52.386Z</time></trkpt><trkpt lat="45.5744233" lon="8.6758117"><ele>182.0</ele><time>2026-04-25T09:43:57.389Z</time></trkpt><trkpt lat="45.5744933" lon="8.6758533"><ele>182.0</ele><time>2026-04-25T09:44:02.387Z</time></trkpt><trkpt lat="45.5745633" lon="8.67586"><ele>182.42857142857142</ele><time>2026-04-25T09:44:09.382Z</time></trkpt><trkpt lat="45.5746333" lon="8.67591"><ele>182.85714285714286</ele><time>2026-04-25T09:44:14.389Z</time></trkpt><trkpt lat="45.5747033" lon="8.6759533"><ele>183.28571428571428</ele><time>2026-04-25T09:44:20.389Z</time></trkpt><trkpt lat="45.5747567" lon="8.67601"><ele>183.71428571428572</ele><time>2026-04-25T09:44:25.386Z</time></trkpt><trkpt lat="45.5747867" lon="8.6761033"><ele>184.14285714285714</ele><time>2026-04-25T09:44:30.386Z</time></trkpt><trkpt lat="45.5748333" lon="8.6761667"><ele>184.57142857142856</ele><time>2026-04-25T09:44:35.387Z</time></trkpt><trkpt lat="45.5749" lon="8.6761683"><ele>185.0</ele><time>2026-04-25T09:44:42.386Z</time></trkpt><trkpt lat="45.5749383" lon="8.6762433"><ele>184.99999999999997</ele><time>2026-04-25T09:44:52.385Z</time></trkpt><trkpt lat="45.57495" lon="8.6763517"><ele>185.0</ele><time>2026-04-25T09:44:58.388Z</time></trkpt><trkpt lat="45.5749167" lon="8.6764683"><ele>185.0</ele><time>2026-04-25T09:45:16.386Z</time></trkpt><trkpt lat="45.574855" lon="8.6765167"><ele>185.0</ele><time>2026-04-25T09:45:22.387Z</time></trkpt><trkpt lat="45.57479" lon="8.6765717"><ele>185.0</ele><time>2026-04-25T09:45:29.386Z</time></trkpt><trkpt lat="45.57472" lon="8.676585"><ele>184.99999999999997</ele><time>2026-04-25T09:45:32.392Z</time></trkpt><trkpt lat="45.574655" lon="8.67661"><ele>185.0</ele><time>2026-04-25T09:45:36.386Z</time></trkpt><trkpt lat="45.574575" lon="8.676625"><ele>184.57142857142856</ele><time>2026-04-25T09:45:40.388Z</time></trkpt><trkpt lat="45.57451" lon="8.6766217"><ele>184.14285714285714</ele><time>2026-04-25T09:45:45.387Z</time></trkpt><trkpt lat="45.5744467" lon="8.67664"><ele>183.71428571428572</ele><time>2026-04-25T09:45:50.39Z</time></trkpt><trkpt lat="45.5743617" lon="8.6767033"><ele>183.28571428571428</ele><time>2026-04-25T09:46:39.386Z</time></trkpt><trkpt lat="45.5743" lon="8.67664"><ele>182.85714285714286</ele><time>2026-04-25T09:46:42.388Z</time></trkpt><trkpt lat="45.574255" lon="8.676575"><ele>182.42857142857142</ele><time>2026-04-25T09:46:45.388Z</time></trkpt><trkpt lat="45.5742283" lon="8.67649"><ele>182.0</ele><time>2026-04-25T09:46:48.387Z</time></trkpt><trkpt lat="45.5742317" lon="8.6763933"><ele>182.0</ele><time>2026-04-25T09:46:51.388Z</time></trkpt><trkpt lat="45.5742633" lon="8.6763133"><ele>182.0</ele><time>2026-04-25T09:46:54.388Z</time></trkpt><trkpt lat="45.574275" lon="8.6762117"><ele>182.0</ele><time>2026-04-25T09:46:58.387Z</time></trkpt><trkpt lat="45.57432" lon="8.6761083"><ele>182.0</ele><time>2026-04-25T09:47:01.387Z</time></trkpt><trkpt lat="45.574375" lon="8.6760567"><ele>182.0</ele><time>2026-04-25T09:47:03.387Z</time></trkpt><trkpt lat="45.5744383" lon="8.67607"><ele>182.0</ele><time>2026-04-25T09:47:06.388Z</time></trkpt><trkpt lat="45.57446" lon="8.6761633"><ele>182.0</ele><time>2026-04-25T09:47:10.387Z</time></trkpt><trkpt lat="45.57443" lon="8.6762683"><ele>182.0</ele><time>2026-04-25T09:47:14.389Z</time></trkpt><trkpt lat="45.5743617" lon="8.676235"><ele>182.0</ele><time>2026-04-25T09:47:17.389Z</time></trkpt><trkpt lat="45.57432" lon="8.67616"><ele>182.0</ele><time>2026-04-25T09:47:19.388Z</time></trkpt><trkpt lat="45.5742917" lon="8.6760783"><ele>182.0</ele><time>2026-04-25T09:47:21.389Z</time></trkpt><trkpt lat="45.57429" lon="8.67598"><ele>182.0</ele><time>2026-04-25T09:47:23.391Z</time></trkpt><trkpt lat="45.5743333" lon="8.6759083"><ele>182.0</ele><time>2026-04-25T09:47:25.392Z</time></trkpt><trkpt lat="45.5744133" lon="8.675885"><ele>182.0</ele><time>2026-04-25T09:47:28.386Z</time></trkpt><trkpt lat="45.57445" lon="8.67598"><ele>182.0</ele><time>2026-04-25T09:47:31.386Z</time></trkpt><trkpt lat="45.5744717" lon="8.6760717"><ele>182.0</ele><time>2026-04-25T09:47:34.386Z</time></trkpt><trkpt lat="45.5744867" lon="8.6761617"><ele>182.0</ele><time>2026-04-25T09:47:37.389Z</time></trkpt><trkpt lat="45.5745067" lon="8.6762617"><ele>182.0</ele><time>2026-04-25T09:47:40.387Z</time></trkpt><trkpt lat="45.5745017" lon="8.67636"><ele>182.0</ele><time>2026-04-25T09:47:43.388Z</time></trkpt><trkpt lat="45.5744867" lon="8.67626"><ele>182.0</ele><time>2026-04-25T09:47:51.388Z</time></trkpt><trkpt lat="45.5744567" lon="8.6761783"><ele>182.0</ele><time>2026-04-25T09:47:57.389Z</time></trkpt><trkpt lat="45.57442" lon="8.676085"><ele>182.0</ele><time>2026-04-25T09:48:08.389Z</time></trkpt><trkpt lat="45.5743833" lon="8.6759983"><ele>182.0</ele><time>2026-04-25T09:48:12.387Z</time></trkpt><trkpt lat="45.574445" lon="8.676065"><ele>182.0</ele><time>2026-04-25T09:48:19.382Z</time></trkpt><trkpt lat="45.5744567" lon="8.6761717"><ele>182.0</ele><time>2026-04-25T09:48:22.382Z</time></trkpt><trkpt lat="45.5744267" lon="8.6762783"><ele>182.0</ele><time>2026-04-25T09:48:25.382Z</time></trkpt><trkpt lat="45.5744467" lon="8.6763817"><ele>182.0</ele><time>2026-04-25T09:48:29.381Z</time></trkpt><trkpt lat="45.5744667" lon="8.6762667"><ele>182.0</ele><time>2026-04-25T09:48:36.387Z</time></trkpt><trkpt lat="45.574425" lon="8.6761667"><ele>182.0</ele><time>2026-04-25T09:48:39.386Z</time></trkpt><trkpt lat="45.5743617" lon="8.6761783"><ele>182.0</ele><time>2026-04-25T09:48:44.388Z</time></trkpt><trkpt lat="45.5743317" lon="8.67605"><ele>182.0</ele><time>2026-04-25T09:50:58.38Z</time></trkpt><trkpt lat="45.5744017" lon="8.6761933"><ele>182.0</ele><time>2026-04-25T09:53:36.38Z</time></trkpt><trkpt lat="45.5743933" lon="8.6762867"><ele>182.0</ele><time>2026-04-25T09:53:51.387Z</time></trkpt><trkpt lat="45.574325" lon="8.6763083"><ele>182.0</ele><time>2026-04-25T09:53:56.387Z</time></trkpt><trkpt lat="45.5742583" lon="8.6762833"><ele>182.0</ele><time>2026-04-25T09:53:59.385Z</time></trkpt><trkpt lat="45.574185" lon="8.6762367"><ele>182.0</ele><time>2026-04-25T09:54:02.389Z</time></trkpt><trkpt lat="45.574115" lon="8.6761967"><ele>182.0</ele><time>2026-04-25T09:54:06.389Z</time></trkpt><trkpt lat="45.57404" lon="8.6761633"><ele>182.0</ele><time>2026-04-25T09:54:10.385Z</time></trkpt><trkpt lat="45.57397" lon="8.67613"><ele>182.0</ele><time>2026-04-25T09:54:13.389Z</time></trkpt><trkpt lat="45.5738967" lon="8.6760783"><ele>182.0</ele><time>2026-04-25T09:54:16.387Z</time></trkpt><trkpt lat="45.5738183" lon="8.6760183"><ele>182.0</ele><time>2026-04-25T09:54:19.387Z</time></trkpt><trkpt lat="45.5737367" lon="8.6759717"><ele>182.0</ele><time>2026-04-25T09:54:22.385Z</time></trkpt><trkpt lat="45.5736767" lon="8.6759217"><ele>182.0</ele><time>2026-04-25T09:54:25.387Z</time></trkpt><trkpt lat="45.5736317" lon="8.67585"><ele>182.0</ele><time>2026-04-25T09:54:29.388Z</time></trkpt><trkpt lat="45.57361" lon="8.6757467"><ele>182.0</ele><time>2026-04-25T09:54:33.386Z</time></trkpt><trkpt lat="45.5736" lon="8.6756517"><ele>182.28571428571428</ele><time>2026-04-25T09:54:36.388Z</time></trkpt><trkpt lat="45.5736" lon="8.6755433"><ele>182.57142857142856</ele><time>2026-04-25T09:54:39.382Z</time></trkpt><trkpt lat="45.5736117" lon="8.6754383"><ele>182.85714285714286</ele><time>2026-04-25T09:54:42.389Z</time></trkpt><trkpt lat="45.5736467" lon="8.6753383"><ele>183.14285714285714</ele><time>2026-04-25T09:54:45.388Z</time></trkpt><trkpt lat="45.5736883" lon="8.6752583"><ele>183.42857142857142</ele><time>2026-04-25T09:54:48.386Z</time></trkpt><trkpt lat="45.5737417" lon="8.6751817"><ele>183.71428571428572</ele><time>2026-04-25T09:54:51.384Z</time></trkpt><trkpt lat="45.57379" lon="8.675115"><ele>184.0</ele><time>2026-04-25T09:54:53.388Z</time></trkpt><trkpt lat="45.5738417" lon="8.6750417"><ele>184.42857142857144</ele><time>2026-04-25T09:54:55.387Z</time></trkpt><trkpt lat="45.5738917" lon="8.6749617"><ele>184.85714285714283</ele><time>2026-04-25T09:54:57.386Z</time></trkpt><trkpt lat="45.5739417" lon="8.674895"><ele>185.28571428571428</ele><time>2026-04-25T09:54:59.387Z</time></trkpt><trkpt lat="45.5740017" lon="8.6748017"><ele>185.71428571428572</ele><time>2026-04-25T09:55:02.388Z</time></trkpt><trkpt lat="45.5740417" lon="8.67473"><ele>186.14285714285717</ele><time>2026-04-25T09:55:04.386Z</time></trkpt><trkpt lat="45.5740817" lon="8.6746567"><ele>186.57142857142856</ele><time>2026-04-25T09:55:06.38Z</time></trkpt><trkpt lat="45.5741333" lon="8.6745583"><ele>187.0</ele><time>2026-04-25T09:55:09.386Z</time></trkpt><trkpt lat="45.5741783" lon="8.674475"><ele>187.7142857142857</ele><time>2026-04-25T09:55:12.386Z</time></trkpt><trkpt lat="45.5742133" lon="8.674395"><ele>188.42857142857144</ele><time>2026-04-25T09:55:16.386Z</time></trkpt><trkpt lat="45.57425" lon="8.67431"><ele>189.14285714285714</ele><time>2026-04-25T09:55:22.386Z</time></trkpt><trkpt lat="45.5742783" lon="8.67422"><ele>189.85714285714283</ele><time>2026-04-25T09:55:26.388Z</time></trkpt><trkpt lat="45.5743067" lon="8.6741333"><ele>190.57142857142856</ele><time>2026-04-25T09:55:29.388Z</time></trkpt><trkpt lat="45.574345" lon="8.6740283"><ele>191.28571428571428</ele><time>2026-04-25T09:55:33.39Z</time></trkpt><trkpt lat="45.5743767" lon="8.67394"><ele>192.0</ele><time>2026-04-25T09:55:36.388Z</time></trkpt><trkpt lat="45.5744117" lon="8.67386"><ele>192.0</ele><time>2026-04-25T09:55:39.387Z</time></trkpt><trkpt lat="45.574455" lon="8.6737567"><ele>192.0</ele><time>2026-04-25T09:55:42.39Z</time></trkpt><trkpt lat="45.5744967" lon="8.6736517"><ele>192.0</ele><time>2026-04-25T09:55:45.388Z</time></trkpt><trkpt lat="45.5745233" lon="8.6735683"><ele>192.0</ele><time>2026-04-25T09:55:49.387Z</time></trkpt><trkpt lat="45.5745433" lon="8.6733883"><ele>192.0</ele><time>2026-04-25T09:56:26.389Z</time></trkpt><trkpt lat="45.5745783" lon="8.6733"><ele>192.0</ele><time>2026-04-25T09:56:31.386Z</time></trkpt><trkpt lat="45.574605" lon="8.6732117"><ele>191.33333333333334</ele><time>2026-04-25T09:56:37.389Z</time></trkpt><trkpt lat="45.5746333" lon="8.6731167"><ele>190.66666666666666</ele><time>2026-04-25T09:56:42.387Z</time></trkpt><trkpt lat="45.5746533" lon="8.6730217"><ele>190.0</ele><time>2026-04-25T09:56:47.387Z</time></trkpt><trkpt lat="45.5746683" lon="8.67293"><ele>189.33333333333331</ele><time>2026-04-25T09:56:51.386Z</time></trkpt><trkpt lat="45.574685" lon="8.67282"><ele>188.66666666666666</ele><time>2026-04-25T09:56:55.38Z</time></trkpt><trkpt lat="45.5747067" lon="8.6727033"><ele>188.0</ele><time>2026-04-25T09:56:59.39Z</time></trkpt><trkpt lat="45.5747167" lon="8.672575"><ele>188.0</ele><time>2026-04-25T09:57:02.389Z</time></trkpt><trkpt lat="45.5747483" lon="8.6724967"><ele>188.0</ele><time>2026-04-25T09:57:09.385Z</time></trkpt><trkpt lat="45.5747617" lon="8.6723767"><ele>188.0</ele><time>2026-04-25T09:57:18.386Z</time></trkpt><trkpt lat="45.5747617" lon="8.6722717"><ele>188.0</ele><time>2026-04-25T09:57:21.388Z</time></trkpt><trkpt lat="45.574765" lon="8.6721617"><ele>188.0</ele><time>2026-04-25T09:57:24.386Z</time></trkpt><trkpt lat="45.5747717" lon="8.6720383"><ele>188.0</ele><time>2026-04-25T09:57:27.386Z</time></trkpt><trkpt lat="45.57477" lon="8.6719367"><ele>188.14285714285714</ele><time>2026-04-25T09:57:29.389Z</time></trkpt><trkpt lat="45.5747733" lon="8.671825"><ele>188.28571428571428</ele><time>2026-04-25T09:57:32.385Z</time></trkpt><trkpt lat="45.574775" lon="8.6717317"><ele>188.42857142857144</ele><time>2026-04-25T09:57:35.386Z</time></trkpt><trkpt lat="45.57477" lon="8.67164"><ele>188.57142857142856</ele><time>2026-04-25T09:57:38.39Z</time></trkpt><trkpt lat="45.5747567" lon="8.6715267"><ele>188.71428571428572</ele><time>2026-04-25T09:57:42.388Z</time></trkpt><trkpt lat="45.5747533" lon="8.6714083"><ele>188.85714285714286</ele><time>2026-04-25T09:57:46.388Z</time></trkpt><trkpt lat="45.5747567" lon="8.671305"><ele>189.0</ele><time>2026-04-25T09:57:50.39Z</time></trkpt><trkpt lat="45.5747667" lon="8.6711983"><ele>189.28571428571428</ele><time>2026-04-25T09:57:55.386Z</time></trkpt><trkpt lat="45.574785" lon="8.671105"><ele>189.57142857142856</ele><time>2026-04-25T09:57:59.388Z</time></trkpt><trkpt lat="45.574815" lon="8.6710183"><ele>189.85714285714286</ele><time>2026-04-25T09:58:03.386Z</time></trkpt><trkpt lat="45.5748583" lon="8.6709417"><ele>190.14285714285714</ele><time>2026-04-25T09:58:08.39Z</time></trkpt><trkpt lat="45.57491" lon="8.6708717"><ele>190.42857142857142</ele><time>2026-04-25T09:58:13.387Z</time></trkpt><trkpt lat="45.5749467" lon="8.6707867"><ele>190.71428571428572</ele><time>2026-04-25T09:58:18.388Z</time></trkpt><trkpt lat="45.5749683" lon="8.6706867"><ele>191.0</ele><time>2026-04-25T09:58:23.387Z</time></trkpt><trkpt lat="45.5749917" lon="8.6705833"><ele>191.0</ele><time>2026-04-25T09:58:28.386Z</time></trkpt><trkpt lat="45.5750067" lon="8.6704783"><ele>191.0</ele><time>2026-04-25T09:58:33.387Z</time></trkpt><trkpt lat="45.5750067" lon="8.67038"><ele>191.0</ele><time>2026-04-25T09:58:36.386Z</time></trkpt><trkpt lat="45.5749967" lon="8.670265"><ele>191.0</ele><time>2026-04-25T09:58:40.387Z</time></trkpt><trkpt lat="45.5749867" lon="8.670175"><ele>191.0</ele><time>2026-04-25T09:58:45.387Z</time></trkpt><trkpt lat="45.574905" lon="8.6700117"><ele>191.0</ele><time>2026-04-25T09:59:13.387Z</time></trkpt><trkpt lat="45.5748933" lon="8.6699083"><ele>191.57142857142858</ele><time>2026-04-25T09:59:55.386Z</time></trkpt><trkpt lat="45.5748433" lon="8.6698283"><ele>192.14285714285714</ele><time>2026-04-25T09:59:59.388Z</time></trkpt><trkpt lat="45.574805" lon="8.6697517"><ele>192.71428571428572</ele><time>2026-04-25T10:00:02.387Z</time></trkpt><trkpt lat="45.5747817" lon="8.669655"><ele>193.28571428571428</ele><time>2026-04-25T10:00:06.389Z</time></trkpt><trkpt lat="45.5747583" lon="8.669555"><ele>193.85714285714283</ele><time>2026-04-25T10:00:10.389Z</time></trkpt><trkpt lat="45.574705" lon="8.6694933"><ele>194.42857142857142</ele><time>2026-04-25T10:00:13.386Z</time></trkpt><trkpt lat="45.5746633" lon="8.6694233"><ele>195.0</ele><time>2026-04-25T10:00:22.385Z</time></trkpt><trkpt lat="45.5746133" lon="8.66929"><ele>195.42857142857142</ele><time>2026-04-25T10:00:52.387Z</time></trkpt><trkpt lat="45.5745867" lon="8.66918"><ele>195.85714285714283</ele><time>2026-04-25T10:00:57.387Z</time></trkpt><trkpt lat="45.5745667" lon="8.6690917"><ele>196.28571428571428</ele><time>2026-04-25T10:01:01.381Z</time></trkpt><trkpt lat="45.574565" lon="8.668985"><ele>196.71428571428572</ele><time>2026-04-25T10:01:05.388Z</time></trkpt><trkpt lat="45.5745517" lon="8.668895"><ele>197.14285714285714</ele><time>2026-04-25T10:01:08.388Z</time></trkpt><trkpt lat="45.57454" lon="8.668805"><ele>197.57142857142858</ele><time>2026-04-25T10:01:12.384Z</time></trkpt><trkpt lat="45.5745217" lon="8.6687017"><ele>198.0</ele><time>2026-04-25T10:01:16.386Z</time></trkpt><trkpt lat="45.5745083" lon="8.668595"><ele>198.2857142857143</ele><time>2026-04-25T10:01:20.389Z</time></trkpt><trkpt lat="45.5744967" lon="8.6684983"><ele>198.57142857142856</ele><time>2026-04-25T10:01:24.389Z</time></trkpt><trkpt lat="45.574485" lon="8.6684033"><ele>198.85714285714286</ele><time>2026-04-25T10:01:28.385Z</time></trkpt><trkpt lat="45.574475" lon="8.668305"><ele>199.14285714285717</ele><time>2026-04-25T10:01:32.386Z</time></trkpt><trkpt lat="45.57447" lon="8.6682067"><ele>199.42857142857144</ele><time>2026-04-25T10:01:36.387Z</time></trkpt><trkpt lat="45.5744633" lon="8.6681117"><ele>199.71428571428572</ele><time>2026-04-25T10:01:40.386Z</time></trkpt><trkpt lat="45.57445" lon="8.6680217"><ele>200.0</ele><time>2026-04-25T10:01:46.385Z</time></trkpt><trkpt lat="45.5744333" lon="8.6679317"><ele>200.00000000000003</ele><time>2026-04-25T10:01:50.388Z</time></trkpt><trkpt lat="45.57442" lon="8.667835"><ele>200.0</ele><time>2026-04-25T10:01:53.388Z</time></trkpt><trkpt lat="45.5744033" lon="8.66773"><ele>200.0</ele><time>2026-04-25T10:01:56.388Z</time></trkpt><trkpt lat="45.5743833" lon="8.6676217"><ele>200.0</ele><time>2026-04-25T10:01:59.387Z</time></trkpt><trkpt lat="45.5743667" lon="8.6675183"><ele>200.0</ele><time>2026-04-25T10:02:02.386Z</time></trkpt><trkpt lat="45.5743517" lon="8.667425"><ele>200.00000000000003</ele><time>2026-04-25T10:02:05.388Z</time></trkpt><trkpt lat="45.574345" lon="8.6673133"><ele>200.0</ele><time>2026-04-25T10:02:09.386Z</time></trkpt><trkpt lat="45.574335" lon="8.66722"><ele>199.71428571428572</ele><time>2026-04-25T10:02:12.386Z</time></trkpt><trkpt lat="45.5743283" lon="8.6671067"><ele>199.42857142857144</ele><time>2026-04-25T10:02:16.386Z</time></trkpt><trkpt lat="45.5743167" lon="8.667015"><ele>199.14285714285717</ele><time>2026-04-25T10:02:20.387Z</time></trkpt><trkpt lat="45.574295" lon="8.6668983"><ele>198.85714285714286</ele><time>2026-04-25T10:02:24.386Z</time></trkpt><trkpt lat="45.5742883" lon="8.666805"><ele>198.57142857142856</ele><time>2026-04-25T10:02:27.382Z</time></trkpt><trkpt lat="45.574265" lon="8.6667017"><ele>198.2857142857143</ele><time>2026-04-25T10:02:31.387Z</time></trkpt><trkpt lat="45.5742317" lon="8.6666167"><ele>198.0</ele><time>2026-04-25T10:02:36.387Z</time></trkpt><trkpt lat="45.5742017" lon="8.666515"><ele>198.0</ele><time>2026-04-25T10:02:40.386Z</time></trkpt><trkpt lat="45.5741767" lon="8.6664067"><ele>198.0</ele><time>2026-04-25T10:02:44.39Z</time></trkpt><trkpt lat="45.5741517" lon="8.6662967"><ele>198.0</ele><time>2026-04-25T10:02:47.387Z</time></trkpt><trkpt lat="45.5741283" lon="8.6661917"><ele>198.0</ele><time>2026-04-25T10:02:50.387Z</time></trkpt><trkpt lat="45.5741083" lon="8.666085"><ele>198.0</ele><time>2026-04-25T10:02:53.385Z</time></trkpt><trkpt lat="45.5740933" lon="8.6659683"><ele>198.0</ele><time>2026-04-25T10:02:57.387Z</time></trkpt><trkpt lat="45.5741" lon="8.66586"><ele>197.42857142857144</ele><time>2026-04-25T10:03:00.389Z</time></trkpt><trkpt lat="45.5740917" lon="8.6657583"><ele>196.85714285714283</ele><time>2026-04-25T10:03:03.386Z</time></trkpt><trkpt lat="45.57408" lon="8.6656633"><ele>196.28571428571428</ele><time>2026-04-25T10:03:06.387Z</time></trkpt><trkpt lat="45.5740667" lon="8.6655667"><ele>195.71428571428572</ele><time>2026-04-25T10:03:09.389Z</time></trkpt><trkpt lat="45.5740517" lon="8.665475"><ele>195.14285714285717</ele><time>2026-04-25T10:03:12.388Z</time></trkpt><trkpt lat="45.5740333" lon="8.6653767"><ele>194.57142857142856</ele><time>2026-04-25T10:03:16.386Z</time></trkpt><trkpt lat="45.5740133" lon="8.6652683"><ele>194.0</ele><time>2026-04-25T10:03:20.389Z</time></trkpt><trkpt lat="45.5739917" lon="8.6651717"><ele>193.50000000000003</ele><time>2026-04-25T10:03:23.387Z</time></trkpt><trkpt lat="45.5739717" lon="8.6650733"><ele>193.0</ele><time>2026-04-25T10:03:26.388Z</time></trkpt><trkpt lat="45.5739467" lon="8.6649633"><ele>192.5</ele><time>2026-04-25T10:03:29.389Z</time></trkpt><trkpt lat="45.5739233" lon="8.664855"><ele>192.0</ele><time>2026-04-25T10:03:32.388Z</time></trkpt><trkpt lat="45.5739" lon="8.6647417"><ele>191.5</ele><time>2026-04-25T10:03:35.388Z</time></trkpt><trkpt lat="45.5738783" lon="8.6646317"><ele>191.0</ele><time>2026-04-25T10:03:38.389Z</time></trkpt><trkpt lat="45.5738567" lon="8.66453"><ele>191.14285714285714</ele><time>2026-04-25T10:03:41.387Z</time></trkpt><trkpt lat="45.57384" lon="8.6644317"><ele>191.28571428571428</ele><time>2026-04-25T10:03:44.386Z</time></trkpt><trkpt lat="45.5738183" lon="8.6643333"><ele>191.42857142857142</ele><time>2026-04-25T10:03:47.386Z</time></trkpt><trkpt lat="45.5737983" lon="8.6642333"><ele>191.57142857142856</ele><time>2026-04-25T10:03:50.39Z</time></trkpt><trkpt lat="45.57378" lon="8.6641433"><ele>191.71428571428572</ele><time>2026-04-25T10:03:54.391Z</time></trkpt><trkpt lat="45.57376" lon="8.6640483"><ele>191.85714285714283</ele><time>2026-04-25T10:06:25.385Z</time></trkpt><trkpt lat="45.5737383" lon="8.6639517"><ele>192.0</ele><time>2026-04-25T10:06:29.388Z</time></trkpt><trkpt lat="45.5737183" lon="8.66386"><ele>191.99999999999997</ele><time>2026-04-25T10:06:32.387Z</time></trkpt><trkpt lat="45.5737033" lon="8.6637617"><ele>192.0</ele><time>2026-04-25T10:06:35.382Z</time></trkpt><trkpt lat="45.57369" lon="8.6636617"><ele>192.0</ele><time>2026-04-25T10:06:38.381Z</time></trkpt><trkpt lat="45.573665" lon="8.6635617"><ele>192.0</ele><time>2026-04-25T10:06:41.389Z</time></trkpt><trkpt lat="45.5736417" lon="8.6634583"><ele>192.0</ele><time>2026-04-25T10:06:45.384Z</time></trkpt><trkpt lat="45.5736233" lon="8.6633667"><ele>191.99999999999997</ele><time>2026-04-25T10:06:48.382Z</time></trkpt><trkpt lat="45.5736" lon="8.6632783"><ele>192.0</ele><time>2026-04-25T10:06:51.387Z</time></trkpt><trkpt lat="45.5735733" lon="8.66316"><ele>191.7142857142857</ele><time>2026-04-25T10:06:54.389Z</time></trkpt><trkpt lat="45.5735433" lon="8.6630383"><ele>191.42857142857142</ele><time>2026-04-25T10:06:57.385Z</time></trkpt><trkpt lat="45.5735217" lon="8.6629533"><ele>191.14285714285714</ele><time>2026-04-25T10:06:59.384Z</time></trkpt><trkpt lat="45.5734983" lon="8.6628683"><ele>190.85714285714283</ele><time>2026-04-25T10:07:01.388Z</time></trkpt><trkpt lat="45.5734767" lon="8.6627833"><ele>190.57142857142858</ele><time>2026-04-25T10:07:03.379Z</time></trkpt><trkpt lat="45.5734467" lon="8.66267"><ele>190.28571428571428</ele><time>2026-04-25T10:07:06.389Z</time></trkpt><trkpt lat="45.5734167" lon="8.6625583"><ele>190.0</ele><time>2026-04-25T10:07:09.388Z</time></trkpt><trkpt lat="45.57339" lon="8.662445"><ele>189.83333333333334</ele><time>2026-04-25T10:07:12.385Z</time></trkpt><trkpt lat="45.5733667" lon="8.6623383"><ele>189.66666666666669</ele><time>2026-04-25T10:07:15.387Z</time></trkpt><trkpt lat="45.5733467" lon="8.6622367"><ele>189.5</ele><time>2026-04-25T10:07:18.387Z</time></trkpt><trkpt lat="45.5733217" lon="8.662135"><ele>189.33333333333334</ele><time>2026-04-25T10:07:21.387Z</time></trkpt><trkpt lat="45.573295" lon="8.6620283"><ele>189.16666666666666</ele><time>2026-04-25T10:07:24.386Z</time></trkpt><trkpt lat="45.5732683" lon="8.6619183"><ele>189.0</ele><time>2026-04-25T10:07:27.387Z</time></trkpt><trkpt lat="45.573235" lon="8.6617983"><ele>189.33333333333334</ele><time>2026-04-25T10:07:30.39Z</time></trkpt><trkpt lat="45.5731983" lon="8.661685"><ele>189.66666666666666</ele><time>2026-04-25T10:07:33.389Z</time></trkpt><trkpt lat="45.5731567" lon="8.661575"><ele>190.0</ele><time>2026-04-25T10:07:36.39Z</time></trkpt><trkpt lat="45.5731233" lon="8.6614767"><ele>190.33333333333331</ele><time>2026-04-25T10:07:39.389Z</time></trkpt><trkpt lat="45.5730883" lon="8.6613733"><ele>190.66666666666666</ele><time>2026-04-25T10:07:42.385Z</time></trkpt><trkpt lat="45.573055" lon="8.6612567"><ele>191.0</ele><time>2026-04-25T10:07:45.388Z</time></trkpt><trkpt lat="45.5730267" lon="8.66114"><ele>191.0</ele><time>2026-04-25T10:07:48.388Z</time></trkpt><trkpt lat="45.5729917" lon="8.6610183"><ele>191.0</ele><time>2026-04-25T10:07:51.385Z</time></trkpt><trkpt lat="45.5729583" lon="8.6608917"><ele>191.0</ele><time>2026-04-25T10:07:54.389Z</time></trkpt><trkpt lat="45.5729333" lon="8.660805"><ele>191.0</ele><time>2026-04-25T10:07:56.386Z</time></trkpt><trkpt lat="45.5729083" lon="8.6607183"><ele>191.0</ele><time>2026-04-25T10:07:58.382Z</time></trkpt><trkpt lat="45.5728833" lon="8.66063"><ele>191.0</ele><time>2026-04-25T10:08:00.387Z</time></trkpt><trkpt lat="45.57285" lon="8.6605083"><ele>190.83333333333331</ele><time>2026-04-25T10:08:03.387Z</time></trkpt><trkpt lat="45.5728233" lon="8.6603933"><ele>190.66666666666666</ele><time>2026-04-25T10:08:06.388Z</time></trkpt><trkpt lat="45.5727983" lon="8.6602917"><ele>190.5</ele><time>2026-04-25T10:08:09.39Z</time></trkpt><trkpt lat="45.572775" lon="8.6601867"><ele>190.33333333333334</ele><time>2026-04-25T10:08:12.389Z</time></trkpt><trkpt lat="45.5727483" lon="8.6600983"><ele>190.16666666666669</ele><time>2026-04-25T10:08:15.387Z</time></trkpt><trkpt lat="45.5727217" lon="8.6600033"><ele>190.0</ele><time>2026-04-25T10:08:18.388Z</time></trkpt><trkpt lat="45.5726983" lon="8.6599017"><ele>190.16666666666669</ele><time>2026-04-25T10:08:21.388Z</time></trkpt><trkpt lat="45.57268" lon="8.6598"><ele>190.33333333333334</ele><time>2026-04-25T10:08:24.387Z</time></trkpt><trkpt lat="45.5726567" lon="8.659695"><ele>190.5</ele><time>2026-04-25T10:08:27.389Z</time></trkpt><trkpt lat="45.5726317" lon="8.6595933"><ele>190.66666666666666</ele><time>2026-04-25T10:08:30.387Z</time></trkpt><trkpt lat="45.57261" lon="8.659485"><ele>190.83333333333331</ele><time>2026-04-25T10:08:33.388Z</time></trkpt><trkpt lat="45.572595" lon="8.659365"><ele>191.0</ele><time>2026-04-25T10:08:36.387Z</time></trkpt><trkpt lat="45.5725817" lon="8.659255"><ele>191.0</ele><time>2026-04-25T10:08:39.387Z</time></trkpt><trkpt lat="45.5725733" lon="8.6591517"><ele>191.0</ele><time>2026-04-25T10:08:42.387Z</time></trkpt><trkpt lat="45.572565" lon="8.65906"><ele>191.0</ele><time>2026-04-25T10:08:45.388Z</time></trkpt><trkpt lat="45.5725567" lon="8.6589483"><ele>191.0</ele><time>2026-04-25T10:08:49.39Z</time></trkpt><trkpt lat="45.57254" lon="8.65883"><ele>191.0</ele><time>2026-04-25T10:08:53.387Z</time></trkpt><trkpt lat="45.5725283" lon="8.6587317"><ele>191.0</ele><time>2026-04-25T10:08:56.389Z</time></trkpt><trkpt lat="45.5725133" lon="8.658635"><ele>191.0</ele><time>2026-04-25T10:08:59.384Z</time></trkpt><trkpt lat="45.5725017" lon="8.658535"><ele>191.14285714285714</ele><time>2026-04-25T10:09:02.387Z</time></trkpt><trkpt lat="45.5724883" lon="8.6584367"><ele>191.28571428571428</ele><time>2026-04-25T10:09:05.388Z</time></trkpt><trkpt lat="45.5724783" lon="8.6583467"><ele>191.42857142857142</ele><time>2026-04-25T10:09:08.39Z</time></trkpt><trkpt lat="45.572465" lon="8.6582383"><ele>191.57142857142856</ele><time>2026-04-25T10:09:12.387Z</time></trkpt><trkpt lat="45.5724483" lon="8.658135"><ele>191.71428571428572</ele><time>2026-04-25T10:09:16.385Z</time></trkpt><trkpt lat="45.5724317" lon="8.658045"><ele>191.85714285714283</ele><time>2026-04-25T10:09:19.38Z</time></trkpt><trkpt lat="45.572405" lon="8.6579333"><ele>192.0</ele><time>2026-04-25T10:09:23.39Z</time></trkpt><trkpt lat="45.5723717" lon="8.6578233"><ele>192.14285714285714</ele><time>2026-04-25T10:09:27.386Z</time></trkpt><trkpt lat="45.572345" lon="8.657725"><ele>192.28571428571428</ele><time>2026-04-25T10:09:30.389Z</time></trkpt><trkpt lat="45.5723167" lon="8.657635"><ele>192.42857142857144</ele><time>2026-04-25T10:09:33.387Z</time></trkpt><trkpt lat="45.5722983" lon="8.6575467"><ele>192.57142857142856</ele><time>2026-04-25T10:09:36.388Z</time></trkpt><trkpt lat="45.5722733" lon="8.657435"><ele>192.71428571428572</ele><time>2026-04-25T10:09:40.388Z</time></trkpt><trkpt lat="45.5722317" lon="8.657315"><ele>192.85714285714286</ele><time>2026-04-25T10:10:01.386Z</time></trkpt><trkpt lat="45.5722117" lon="8.6572267"><ele>193.0</ele><time>2026-04-25T10:10:04.388Z</time></trkpt><trkpt lat="45.57219" lon="8.6571333"><ele>192.99999999999997</ele><time>2026-04-25T10:10:07.386Z</time></trkpt><trkpt lat="45.572165" lon="8.6570367"><ele>193.0</ele><time>2026-04-25T10:10:10.385Z</time></trkpt><trkpt lat="45.5721433" lon="8.6569517"><ele>193.0</ele><time>2026-04-25T10:10:12.385Z</time></trkpt><trkpt lat="45.5721183" lon="8.6568467"><ele>193.0</ele><time>2026-04-25T10:10:14.388Z</time></trkpt><trkpt lat="45.57209" lon="8.656735"><ele>192.99999999999997</ele><time>2026-04-25T10:10:16.386Z</time></trkpt><trkpt lat="45.5720617" lon="8.65662"><ele>193.0</ele><time>2026-04-25T10:10:18.38Z</time></trkpt><trkpt lat="45.5720367" lon="8.6565133"><ele>192.85714285714286</ele><time>2026-04-25T10:10:20.391Z</time></trkpt><trkpt lat="45.5720217" lon="8.6564167"><ele>192.71428571428572</ele><time>2026-04-25T10:10:22.386Z</time></trkpt><trkpt lat="45.5720083" lon="8.656325"><ele>192.57142857142856</ele><time>2026-04-25T10:10:24.386Z</time></trkpt><trkpt lat="45.5719917" lon="8.6562317"><ele>192.42857142857144</ele><time>2026-04-25T10:10:26.387Z</time></trkpt><trkpt lat="45.5719733" lon="8.656135"><ele>192.28571428571428</ele><time>2026-04-25T10:10:28.387Z</time></trkpt><trkpt lat="45.571955" lon="8.6560417"><ele>192.14285714285714</ele><time>2026-04-25T10:10:30.386Z</time></trkpt><trkpt lat="45.5719333" lon="8.6559517"><ele>192.0</ele><time>2026-04-25T10:10:32.389Z</time></trkpt><trkpt lat="45.5719067" lon="8.655825"><ele>191.83333333333334</ele><time>2026-04-25T10:10:35.389Z</time></trkpt><trkpt lat="45.5718867" lon="8.6557067"><ele>191.66666666666666</ele><time>2026-04-25T10:10:38.389Z</time></trkpt><trkpt lat="45.571875" lon="8.655585"><ele>191.5</ele><time>2026-04-25T10:10:41.386Z</time></trkpt><trkpt lat="45.5718717" lon="8.65545"><ele>191.33333333333331</ele><time>2026-04-25T10:10:44.388Z</time></trkpt><trkpt lat="45.5718683" lon="8.65532"><ele>191.16666666666666</ele><time>2026-04-25T10:10:47.387Z</time></trkpt><trkpt lat="45.5718633" lon="8.6551967"><ele>191.0</ele><time>2026-04-25T10:10:50.389Z</time></trkpt><trkpt lat="45.57185" lon="8.655095"><ele>191.0</ele><time>2026-04-25T10:10:53.39Z</time></trkpt><trkpt lat="45.5718367" lon="8.6549883"><ele>191.0</ele><time>2026-04-25T10:10:56.39Z</time></trkpt><trkpt lat="45.5718283" lon="8.6548767"><ele>191.0</ele><time>2026-04-25T10:10:59.388Z</time></trkpt><trkpt lat="45.571815" lon="8.65478"><ele>191.0</ele><time>2026-04-25T10:11:02.388Z</time></trkpt><trkpt lat="45.5718017" lon="8.65469"><ele>191.0</ele><time>2026-04-25T10:11:05.387Z</time></trkpt><trkpt lat="45.5717883" lon="8.6545917"><ele>191.0</ele><time>2026-04-25T10:11:08.388Z</time></trkpt><trkpt lat="45.571775" lon="8.65449"><ele>191.0</ele><time>2026-04-25T10:11:11.387Z</time></trkpt><trkpt lat="45.5717533" lon="8.6543833"><ele>191.2857142857143</ele><time>2026-04-25T10:11:14.387Z</time></trkpt><trkpt lat="45.57173" lon="8.6542717"><ele>191.57142857142856</ele><time>2026-04-25T10:11:17.38Z</time></trkpt><trkpt lat="45.5717133" lon="8.654155"><ele>191.85714285714286</ele><time>2026-04-25T10:11:20.391Z</time></trkpt><trkpt lat="45.5716967" lon="8.65405"><ele>192.14285714285717</ele><time>2026-04-25T10:11:23.391Z</time></trkpt><trkpt lat="45.5716833" lon="8.6539567"><ele>192.42857142857144</ele><time>2026-04-25T10:11:26.389Z</time></trkpt><trkpt lat="45.571685" lon="8.6538567"><ele>192.71428571428572</ele><time>2026-04-25T10:11:29.385Z</time></trkpt><trkpt lat="45.5717" lon="8.6537617"><ele>193.0</ele><time>2026-04-25T10:11:32.388Z</time></trkpt><trkpt lat="45.5717233" lon="8.6536533"><ele>193.14285714285717</ele><time>2026-04-25T10:11:36.38Z</time></trkpt><trkpt lat="45.5717317" lon="8.6535567"><ele>193.28571428571428</ele><time>2026-04-25T10:11:40.386Z</time></trkpt><trkpt lat="45.57175" lon="8.6534683"><ele>193.42857142857144</ele><time>2026-04-25T10:11:43.387Z</time></trkpt><trkpt lat="45.5717683" lon="8.65335"><ele>193.57142857142858</ele><time>2026-04-25T10:11:47.387Z</time></trkpt><trkpt lat="45.5717917" lon="8.6532517"><ele>193.71428571428572</ele><time>2026-04-25T10:11:50.387Z</time></trkpt><trkpt lat="45.571805" lon="8.6531517"><ele>193.85714285714286</ele><time>2026-04-25T10:11:53.384Z</time></trkpt><trkpt lat="45.5718233" lon="8.6530567"><ele>194.0</ele><time>2026-04-25T10:11:56.389Z</time></trkpt><trkpt lat="45.5718433" lon="8.6529633"><ele>194.00000000000003</ele><time>2026-04-25T10:11:59.387Z</time></trkpt><trkpt lat="45.5718517" lon="8.65286"><ele>194.0</ele><time>2026-04-25T10:12:02.389Z</time></trkpt><trkpt lat="45.57187" lon="8.65274"><ele>194.0</ele><time>2026-04-25T10:12:05.385Z</time></trkpt><trkpt lat="45.5718967" lon="8.65261"><ele>194.0</ele><time>2026-04-25T10:12:08.382Z</time></trkpt><trkpt lat="45.5719183" lon="8.6525167"><ele>194.00000000000003</ele><time>2026-04-25T10:12:10.388Z</time></trkpt><trkpt lat="45.5719417" lon="8.6524233"><ele>194.0</ele><time>2026-04-25T10:12:12.386Z</time></trkpt><trkpt lat="45.571965" lon="8.65233"><ele>194.00000000000003</ele><time>2026-04-25T10:12:14.387Z</time></trkpt><trkpt lat="45.5719883" lon="8.6522367"><ele>194.0</ele><time>2026-04-25T10:12:16.387Z</time></trkpt><trkpt lat="45.5720117" lon="8.6521433"><ele>194.0</ele><time>2026-04-25T10:12:18.387Z</time></trkpt><trkpt lat="45.5720317" lon="8.65205"><ele>194.0</ele><time>2026-04-25T10:12:20.391Z</time></trkpt><trkpt lat="45.5720533" lon="8.65192"><ele>194.00000000000003</ele><time>2026-04-25T10:12:23.387Z</time></trkpt><trkpt lat="45.5720733" lon="8.6518"><ele>194.0</ele><time>2026-04-25T10:12:26.388Z</time></trkpt><trkpt lat="45.572095" lon="8.6517033"><ele>194.0</ele><time>2026-04-25T10:12:29.385Z</time></trkpt><trkpt lat="45.572115" lon="8.651615"><ele>194.0</ele><time>2026-04-25T10:12:32.389Z</time></trkpt><trkpt lat="45.57214" lon="8.651515"><ele>194.0</ele><time>2026-04-25T10:12:36.386Z</time></trkpt><trkpt lat="45.5721633" lon="8.65143"><ele>194.0</ele><time>2026-04-25T10:12:41.388Z</time></trkpt><trkpt lat="45.5721633" lon="8.6513267"><ele>194.0</ele><time>2026-04-25T10:12:48.386Z</time></trkpt><trkpt lat="45.572155" lon="8.6512117"><ele>194.0</ele><time>2026-04-25T10:13:04.388Z</time></trkpt><trkpt lat="45.5722017" lon="8.651115"><ele>194.0</ele><time>2026-04-25T10:13:07.389Z</time></trkpt><trkpt lat="45.572225" lon="8.651"><ele>193.83333333333334</ele><time>2026-04-25T10:13:10.387Z</time></trkpt><trkpt lat="45.5722417" lon="8.6509117"><ele>193.66666666666669</ele><time>2026-04-25T10:13:12.386Z</time></trkpt><trkpt lat="45.5722583" lon="8.6508217"><ele>193.5</ele><time>2026-04-25T10:13:14.389Z</time></trkpt><trkpt lat="45.5722783" lon="8.65072"><ele>193.33333333333331</ele><time>2026-04-25T10:13:16.387Z</time></trkpt><trkpt lat="45.5722967" lon="8.6506083"><ele>193.16666666666666</ele><time>2026-04-25T10:13:18.385Z</time></trkpt><trkpt lat="45.5723183" lon="8.6504883"><ele>193.0</ele><time>2026-04-25T10:13:20.389Z</time></trkpt><trkpt lat="45.5723433" lon="8.6503667"><ele>192.99999999999997</ele><time>2026-04-25T10:13:22.39Z</time></trkpt><trkpt lat="45.5723667" lon="8.650245"><ele>193.0</ele><time>2026-04-25T10:13:24.385Z</time></trkpt><trkpt lat="45.5723917" lon="8.6501333"><ele>193.0</ele><time>2026-04-25T10:13:26.39Z</time></trkpt><trkpt lat="45.5724117" lon="8.6500367"><ele>193.0</ele><time>2026-04-25T10:13:28.387Z</time></trkpt><trkpt lat="45.57244" lon="8.6499383"><ele>192.99999999999997</ele><time>2026-04-25T10:13:30.388Z</time></trkpt><trkpt lat="45.5724583" lon="8.649835"><ele>193.0</ele><time>2026-04-25T10:13:32.387Z</time></trkpt><trkpt lat="45.5724683" lon="8.6497317"><ele>192.99999999999997</ele><time>2026-04-25T10:13:34.386Z</time></trkpt><trkpt lat="45.5724783" lon="8.6496233"><ele>193.0</ele><time>2026-04-25T10:13:36.386Z</time></trkpt><trkpt lat="45.572485" lon="8.6495133"><ele>193.0</ele><time>2026-04-25T10:13:38.389Z</time></trkpt><trkpt lat="45.57249" lon="8.6494033"><ele>193.0</ele><time>2026-04-25T10:13:40.387Z</time></trkpt><trkpt lat="45.572495" lon="8.64929"><ele>192.99999999999997</ele><time>2026-04-25T10:13:42.386Z</time></trkpt><trkpt lat="45.5724983" lon="8.6491717"><ele>193.0</ele><time>2026-04-25T10:13:44.386Z</time></trkpt><trkpt lat="45.5725" lon="8.6490483"><ele>192.99999999999997</ele><time>2026-04-25T10:13:46.388Z</time></trkpt><trkpt lat="45.5725033" lon="8.6489117"><ele>193.0</ele><time>2026-04-25T10:13:48.385Z</time></trkpt><trkpt lat="45.5725033" lon="8.6487783"><ele>193.0</ele><time>2026-04-25T10:13:50.385Z</time></trkpt><trkpt lat="45.5725" lon="8.6486533"><ele>193.0</ele><time>2026-04-25T10:13:52.386Z</time></trkpt><trkpt lat="45.5725067" lon="8.6485317"><ele>192.99999999999997</ele><time>2026-04-25T10:13:54.387Z</time></trkpt><trkpt lat="45.5725133" lon="8.6484083"><ele>193.0</ele><time>2026-04-25T10:13:56.388Z</time></trkpt><trkpt lat="45.572515" lon="8.6482883"><ele>193.00000000000003</ele><time>2026-04-25T10:13:58.388Z</time></trkpt><trkpt lat="45.5725133" lon="8.6481817"><ele>193.0</ele><time>2026-04-25T10:14:00.386Z</time></trkpt><trkpt lat="45.572515" lon="8.6480817"><ele>193.0</ele><time>2026-04-25T10:14:02.386Z</time></trkpt><trkpt lat="45.57252" lon="8.647985"><ele>193.0</ele><time>2026-04-25T10:14:04.388Z</time></trkpt><trkpt lat="45.5725233" lon="8.6478933"><ele>193.0</ele><time>2026-04-25T10:14:06.385Z</time></trkpt><trkpt lat="45.5725267" lon="8.6478017"><ele>193.00000000000003</ele><time>2026-04-25T10:14:08.389Z</time></trkpt><trkpt lat="45.57253" lon="8.64771"><ele>193.0</ele><time>2026-04-25T10:14:10.39Z</time></trkpt><trkpt lat="45.5725217" lon="8.6475783"><ele>193.14285714285717</ele><time>2026-04-25T10:14:13.386Z</time></trkpt><trkpt lat="45.572515" lon="8.6474783"><ele>193.28571428571428</ele><time>2026-04-25T10:14:15.386Z</time></trkpt><trkpt lat="45.5725017" lon="8.647375"><ele>193.42857142857144</ele><time>2026-04-25T10:14:17.387Z</time></trkpt><trkpt lat="45.5724917" lon="8.647275"><ele>193.57142857142858</ele><time>2026-04-25T10:14:19.388Z</time></trkpt><trkpt lat="45.57248" lon="8.6471733"><ele>193.71428571428572</ele><time>2026-04-25T10:14:21.387Z</time></trkpt><trkpt lat="45.57246" lon="8.6470483"><ele>193.85714285714286</ele><time>2026-04-25T10:14:24.386Z</time></trkpt><trkpt lat="45.572445" lon="8.6469583"><ele>194.0</ele><time>2026-04-25T10:14:26.388Z</time></trkpt><trkpt lat="45.572425" lon="8.6468283"><ele>194.33333333333334</ele><time>2026-04-25T10:14:29.388Z</time></trkpt><trkpt lat="45.5724067" lon="8.6467217"><ele>194.66666666666669</ele><time>2026-04-25T10:14:32.387Z</time></trkpt><trkpt lat="45.5723917" lon="8.6466233"><ele>195.0</ele><time>2026-04-25T10:14:35.387Z</time></trkpt><trkpt lat="45.5723733" lon="8.6465133"><ele>195.33333333333331</ele><time>2026-04-25T10:14:38.386Z</time></trkpt><trkpt lat="45.572355" lon="8.6464"><ele>195.66666666666666</ele><time>2026-04-25T10:14:41.388Z</time></trkpt><trkpt lat="45.5723367" lon="8.64629"><ele>196.0</ele><time>2026-04-25T10:14:44.393Z</time></trkpt><trkpt lat="45.5723217" lon="8.6461933"><ele>196.49999999999997</ele><time>2026-04-25T10:14:47.386Z</time></trkpt><trkpt lat="45.5723033" lon="8.6460767"><ele>197.0</ele><time>2026-04-25T10:14:50.389Z</time></trkpt><trkpt lat="45.5722817" lon="8.64595"><ele>197.5</ele><time>2026-04-25T10:14:53.387Z</time></trkpt><trkpt lat="45.5722667" lon="8.6458483"><ele>198.0</ele><time>2026-04-25T10:14:55.388Z</time></trkpt><trkpt lat="45.5722517" lon="8.645745"><ele>198.49999999999997</ele><time>2026-04-25T10:14:57.389Z</time></trkpt><trkpt lat="45.5722383" lon="8.6456517"><ele>199.0</ele><time>2026-04-25T10:14:59.387Z</time></trkpt><trkpt lat="45.572225" lon="8.6455583"><ele>198.99999999999997</ele><time>2026-04-25T10:15:01.387Z</time></trkpt><trkpt lat="45.5722083" lon="8.6454533"><ele>199.0</ele><time>2026-04-25T10:15:03.382Z</time></trkpt><trkpt lat="45.572195" lon="8.6453567"><ele>199.0</ele><time>2026-04-25T10:15:05.387Z</time></trkpt><trkpt lat="45.5721783" lon="8.6452467"><ele>199.0</ele><time>2026-04-25T10:15:07.389Z</time></trkpt><trkpt lat="45.5721667" lon="8.6451367"><ele>198.99999999999997</ele><time>2026-04-25T10:15:09.389Z</time></trkpt><trkpt lat="45.572145" lon="8.6450167"><ele>199.0</ele><time>2026-04-25T10:15:11.381Z</time></trkpt><trkpt lat="45.5721167" lon="8.6448817"><ele>198.99999999999997</ele><time>2026-04-25T10:15:13.387Z</time></trkpt><trkpt lat="45.5721017" lon="8.64476"><ele>199.0</ele><time>2026-04-25T10:15:15.388Z</time></trkpt><trkpt lat="45.5720817" lon="8.6446517"><ele>199.0</ele><time>2026-04-25T10:15:17.388Z</time></trkpt><trkpt lat="45.5720633" lon="8.64455"><ele>199.0</ele><time>2026-04-25T10:15:19.389Z</time></trkpt><trkpt lat="45.5720433" lon="8.644455"><ele>198.99999999999997</ele><time>2026-04-25T10:15:21.387Z</time></trkpt><trkpt lat="45.57202" lon="8.6443367"><ele>199.0</ele><time>2026-04-25T10:15:24.388Z</time></trkpt><trkpt lat="45.572" lon="8.64424"><ele>198.7142857142857</ele><time>2026-04-25T10:15:27.389Z</time></trkpt><trkpt lat="45.5719817" lon="8.644145"><ele>198.42857142857142</ele><time>2026-04-25T10:15:31.385Z</time></trkpt><trkpt lat="45.5719583" lon="8.644035"><ele>198.14285714285714</ele><time>2026-04-25T10:15:35.388Z</time></trkpt><trkpt lat="45.5719417" lon="8.6439467"><ele>197.85714285714283</ele><time>2026-04-25T10:15:38.389Z</time></trkpt><trkpt lat="45.5719633" lon="8.643835"><ele>197.57142857142858</ele><time>2026-04-25T10:15:43.387Z</time></trkpt><trkpt lat="45.5720067" lon="8.643765"><ele>197.28571428571428</ele><time>2026-04-25T10:15:45.387Z</time></trkpt><trkpt lat="45.5720517" lon="8.6436883"><ele>197.0</ele><time>2026-04-25T10:15:47.387Z</time></trkpt><trkpt lat="45.572095" lon="8.6436083"><ele>196.85714285714286</ele><time>2026-04-25T10:15:49.384Z</time></trkpt><trkpt lat="45.5721433" lon="8.6435367"><ele>196.71428571428572</ele><time>2026-04-25T10:15:51.389Z</time></trkpt><trkpt lat="45.5721867" lon="8.6434483"><ele>196.57142857142856</ele><time>2026-04-25T10:15:54.389Z</time></trkpt><trkpt lat="45.5721733" lon="8.6433467"><ele>196.42857142857144</ele><time>2026-04-25T10:15:58.39Z</time></trkpt><trkpt lat="45.5721017" lon="8.6433717"><ele>196.28571428571428</ele><time>2026-04-25T10:16:03.39Z</time></trkpt><trkpt lat="45.572035" lon="8.6434467"><ele>196.14285714285714</ele><time>2026-04-25T10:16:06.389Z</time></trkpt><trkpt lat="45.57198" lon="8.6435117"><ele>196.0</ele><time>2026-04-25T10:16:09.389Z</time></trkpt><trkpt lat="45.5719133" lon="8.6434467"><ele>195.99999999999997</ele><time>2026-04-25T10:16:13.386Z</time></trkpt><trkpt lat="45.5718633" lon="8.6433517"><ele>196.0</ele><time>2026-04-25T10:16:16.389Z</time></trkpt><trkpt lat="45.5718717" lon="8.6434433"><ele>196.0</ele><time>2026-04-25T10:16:24.388Z</time></trkpt><trkpt lat="45.57182" lon="8.643385"><ele>196.0</ele><time>2026-04-25T10:17:10.386Z</time></trkpt><trkpt lat="45.5718" lon="8.64329"><ele>195.99999999999997</ele><time>2026-04-25T10:17:14.387Z</time></trkpt><trkpt lat="45.5717783" lon="8.6431867"><ele>196.0</ele><time>2026-04-25T10:17:17.386Z</time></trkpt><trkpt lat="45.57175" lon="8.6430617"><ele>195.99999999999997</ele><time>2026-04-25T10:17:20.388Z</time></trkpt><trkpt lat="45.5717233" lon="8.6429367"><ele>196.0</ele><time>2026-04-25T10:17:23.385Z</time></trkpt><trkpt lat="45.5717033" lon="8.6428417"><ele>196.0</ele><time>2026-04-25T10:17:26.389Z</time></trkpt><trkpt lat="45.5716833" lon="8.642745"><ele>196.0</ele><time>2026-04-25T10:17:30.386Z</time></trkpt><trkpt lat="45.5716183" lon="8.6427483"><ele>195.99999999999997</ele><time>2026-04-25T10:17:37.38Z</time></trkpt><trkpt lat="45.5715283" lon="8.6427633"><ele>196.0</ele><time>2026-04-25T10:17:41.386Z</time></trkpt><trkpt lat="45.571455" lon="8.6427417"><ele>196.14285714285714</ele><time>2026-04-25T10:17:44.388Z</time></trkpt><trkpt lat="45.5714017" lon="8.64269"><ele>196.28571428571428</ele><time>2026-04-25T10:17:47.389Z</time></trkpt><trkpt lat="45.5713717" lon="8.642575"><ele>196.42857142857144</ele><time>2026-04-25T10:17:51.387Z</time></trkpt><trkpt lat="45.5713567" lon="8.6424733"><ele>196.57142857142856</ele><time>2026-04-25T10:17:54.387Z</time></trkpt><trkpt lat="45.5713367" lon="8.6423617"><ele>196.71428571428572</ele><time>2026-04-25T10:17:57.387Z</time></trkpt><trkpt lat="45.5713117" lon="8.6422617"><ele>196.85714285714286</ele><time>2026-04-25T10:18:00.387Z</time></trkpt><trkpt lat="45.5712933" lon="8.642165"><ele>197.0</ele><time>2026-04-25T10:18:03.386Z</time></trkpt><trkpt lat="45.571275" lon="8.6420717"><ele>197.00000000000003</ele><time>2026-04-25T10:18:06.387Z</time></trkpt><trkpt lat="45.5712533" lon="8.641955"><ele>197.0</ele><time>2026-04-25T10:18:10.386Z</time></trkpt><trkpt lat="45.57123" lon="8.64183"><ele>197.0</ele><time>2026-04-25T10:18:14.387Z</time></trkpt><trkpt lat="45.5712117" lon="8.6417383"><ele>197.0</ele><time>2026-04-25T10:18:19.387Z</time></trkpt><trkpt lat="45.5712567" lon="8.6416483"><ele>197.00000000000003</ele><time>2026-04-25T10:18:31.386Z</time></trkpt><trkpt lat="45.571355" lon="8.64154"><ele>197.0</ele><time>2026-04-25T10:18:48.387Z</time></trkpt><trkpt lat="45.571435" lon="8.6415"><ele>197.00000000000003</ele><time>2026-04-25T10:18:50.388Z</time></trkpt><trkpt lat="45.5714933" lon="8.6414583"><ele>197.0</ele><time>2026-04-25T10:18:52.386Z</time></trkpt><trkpt lat="45.571555" lon="8.64142"><ele>197.0</ele><time>2026-04-25T10:18:56.389Z</time></trkpt><trkpt lat="45.5716367" lon="8.641365"><ele>197.0</ele><time>2026-04-25T10:19:01.388Z</time></trkpt><trkpt lat="45.5717267" lon="8.641305"><ele>197.00000000000003</ele><time>2026-04-25T10:19:04.387Z</time></trkpt><trkpt lat="45.5717933" lon="8.6412617"><ele>197.0</ele><time>2026-04-25T10:19:07.386Z</time></trkpt><trkpt lat="45.5718567" lon="8.64122"><ele>197.0</ele><time>2026-04-25T10:19:14.389Z</time></trkpt><trkpt lat="45.571925" lon="8.641175"><ele>197.0</ele><time>2026-04-25T10:19:20.389Z</time></trkpt><trkpt lat="45.5719967" lon="8.6411267"><ele>197.0</ele><time>2026-04-25T10:19:27.387Z</time></trkpt><trkpt lat="45.5720583" lon="8.6410867"><ele>197.0</ele><time>2026-04-25T10:19:30.386Z</time></trkpt><trkpt lat="45.57212" lon="8.641045"><ele>197.0</ele><time>2026-04-25T10:19:34.389Z</time></trkpt><trkpt lat="45.5721967" lon="8.6409933"><ele>197.0</ele><time>2026-04-25T10:19:38.388Z</time></trkpt><trkpt lat="45.5722567" lon="8.6409533"><ele>197.0</ele><time>2026-04-25T10:19:41.386Z</time></trkpt><trkpt lat="45.5723183" lon="8.6409133"><ele>197.0</ele><time>2026-04-25T10:19:43.387Z</time></trkpt><trkpt lat="45.57238" lon="8.6408733"><ele>197.0</ele><time>2026-04-25T10:19:47.388Z</time></trkpt><trkpt lat="45.57244" lon="8.64084"><ele>197.0</ele><time>2026-04-25T10:19:52.386Z</time></trkpt><trkpt lat="45.5725017" lon="8.6408067"><ele>197.0</ele><time>2026-04-25T10:19:58.388Z</time></trkpt><trkpt lat="45.5725117" lon="8.6407033"><ele>197.0</ele><time>2026-04-25T10:20:03.39Z</time></trkpt><trkpt lat="45.57252" lon="8.6406117"><ele>197.0</ele><time>2026-04-25T10:20:06.39Z</time></trkpt><trkpt lat="45.5725267" lon="8.6405"><ele>197.0</ele><time>2026-04-25T10:20:10.387Z</time></trkpt><trkpt lat="45.57251" lon="8.6403917"><ele>196.66666666666669</ele><time>2026-04-25T10:20:13.388Z</time></trkpt><trkpt lat="45.5724867" lon="8.6402883"><ele>196.33333333333334</ele><time>2026-04-25T10:20:16.388Z</time></trkpt><trkpt lat="45.5724517" lon="8.6401717"><ele>196.0</ele><time>2026-04-25T10:20:19.387Z</time></trkpt><trkpt lat="45.57243" lon="8.64004"><ele>195.66666666666669</ele><time>2026-04-25T10:20:22.388Z</time></trkpt><trkpt lat="45.5724067" lon="8.6399433"><ele>195.33333333333334</ele><time>2026-04-25T10:20:24.387Z</time></trkpt><trkpt lat="45.5723833" lon="8.6398467"><ele>195.0</ele><time>2026-04-25T10:20:26.387Z</time></trkpt><trkpt lat="45.5723517" lon="8.63973"><ele>195.0</ele><time>2026-04-25T10:20:29.386Z</time></trkpt><trkpt lat="45.5723283" lon="8.639645"><ele>195.0</ele><time>2026-04-25T10:20:32.389Z</time></trkpt><trkpt lat="45.572375" lon="8.6395583"><ele>195.0</ele><time>2026-04-25T10:20:36.387Z</time></trkpt><trkpt lat="45.5724367" lon="8.63951"><ele>195.0</ele><time>2026-04-25T10:20:38.389Z</time></trkpt><trkpt lat="45.5724967" lon="8.6394183"><ele>195.0</ele><time>2026-04-25T10:20:41.387Z</time></trkpt><trkpt lat="45.5725367" lon="8.639345"><ele>195.0</ele><time>2026-04-25T10:20:45.387Z</time></trkpt></trkseg></trk></gpx>